<?xml version="1.0" encoding="UTF-8" standalone="no" ?>
<gpx xmlns="http://www.topografix.com/GPX/1/1" xmlns:xsi="http://www.w3.org/2001/XMLSchema-instance" xsi:schemaLocation="http://www.topografix.com/GPX/1/1 http://www.topografix.com/GPX/1/1/gpx.xsd" version="1.1" creator="VisuGPX - https://www.visugpx.com">
  <metadata>
    <name>Haux (boucle 2)</name>
    <desc><![CDATA[Randonnée VTT]]></desc>
  </metadata>
  <trk>
    <name><![CDATA[haux 2]]></name>
    <trkseg>
      <trkpt lat="44.73537" lon="-0.35934">
        <ele>90</ele>
        <time>2013-03-03T14:02:37Z</time>
      </trkpt>
      <trkpt lat="44.73534" lon="-0.35932">
        <ele>90</ele>
        <time>2013-03-03T14:02:38Z</time>
      </trkpt>
      <trkpt lat="44.7353" lon="-0.35932">
        <ele>90</ele>
        <time>2013-03-03T14:02:39Z</time>
      </trkpt>
      <trkpt lat="44.73527" lon="-0.35932">
        <ele>90</ele>
        <time>2013-03-03T14:02:40Z</time>
      </trkpt>
      <trkpt lat="44.73524" lon="-0.35933">
        <ele>90</ele>
        <time>2013-03-03T14:02:41Z</time>
      </trkpt>
      <trkpt lat="44.73522" lon="-0.35933">
        <ele>90</ele>
        <time>2013-03-03T14:02:42Z</time>
      </trkpt>
      <trkpt lat="44.7352" lon="-0.35934">
        <ele>90</ele>
        <time>2013-03-03T14:02:43Z</time>
      </trkpt>
      <trkpt lat="44.73519" lon="-0.35934">
        <ele>90</ele>
        <time>2013-03-03T14:02:49Z</time>
      </trkpt>
      <trkpt lat="44.73519" lon="-0.35934">
        <ele>90</ele>
        <time>2013-03-03T14:03:03Z</time>
      </trkpt>
      <trkpt lat="44.73519" lon="-0.35934">
        <ele>90</ele>
        <time>2013-03-03T14:03:14Z</time>
      </trkpt>
      <trkpt lat="44.73519" lon="-0.35934">
        <ele>90</ele>
        <time>2013-03-03T14:03:26Z</time>
      </trkpt>
      <trkpt lat="44.73519" lon="-0.35935">
        <ele>90</ele>
        <time>2013-03-03T14:03:40Z</time>
      </trkpt>
      <trkpt lat="44.73519" lon="-0.35934">
        <ele>90</ele>
        <time>2013-03-03T14:03:51Z</time>
      </trkpt>
      <trkpt lat="44.7352" lon="-0.35934">
        <ele>90</ele>
        <time>2013-03-03T14:04:03Z</time>
      </trkpt>
      <trkpt lat="44.7352" lon="-0.35933">
        <ele>90</ele>
        <time>2013-03-03T14:04:13Z</time>
      </trkpt>
      <trkpt lat="44.73521" lon="-0.35933">
        <ele>90</ele>
        <time>2013-03-03T14:04:26Z</time>
      </trkpt>
      <trkpt lat="44.73521" lon="-0.35933">
        <ele>90</ele>
        <time>2013-03-03T14:04:34Z</time>
      </trkpt>
      <trkpt lat="44.73521" lon="-0.35934">
        <ele>90</ele>
        <time>2013-03-03T14:04:40Z</time>
      </trkpt>
      <trkpt lat="44.73521" lon="-0.35933">
        <ele>90</ele>
        <time>2013-03-03T14:04:46Z</time>
      </trkpt>
      <trkpt lat="44.73521" lon="-0.35933">
        <ele>90</ele>
        <time>2013-03-03T14:04:54Z</time>
      </trkpt>
      <trkpt lat="44.73521" lon="-0.35933">
        <ele>90</ele>
        <time>2013-03-03T14:05:04Z</time>
      </trkpt>
      <trkpt lat="44.73521" lon="-0.35933">
        <ele>90</ele>
        <time>2013-03-03T14:05:13Z</time>
      </trkpt>
      <trkpt lat="44.73521" lon="-0.35933">
        <ele>90</ele>
        <time>2013-03-03T14:05:30Z</time>
      </trkpt>
      <trkpt lat="44.7352" lon="-0.35933">
        <ele>90</ele>
        <time>2013-03-03T14:05:40Z</time>
      </trkpt>
      <trkpt lat="44.7352" lon="-0.35934">
        <ele>90</ele>
        <time>2013-03-03T14:05:46Z</time>
      </trkpt>
      <trkpt lat="44.73519" lon="-0.35936">
        <ele>90</ele>
        <time>2013-03-03T14:05:47Z</time>
      </trkpt>
      <trkpt lat="44.73517" lon="-0.35937">
        <ele>90</ele>
        <time>2013-03-03T14:05:48Z</time>
      </trkpt>
      <trkpt lat="44.73516" lon="-0.35939">
        <ele>90</ele>
        <time>2013-03-03T14:05:54Z</time>
      </trkpt>
      <trkpt lat="44.73511" lon="-0.35948">
        <ele>90</ele>
        <time>2013-03-03T14:05:59Z</time>
      </trkpt>
      <trkpt lat="44.7351" lon="-0.3595">
        <ele>90</ele>
        <time>2013-03-03T14:06:00Z</time>
      </trkpt>
      <trkpt lat="44.7351" lon="-0.35953">
        <ele>90</ele>
        <time>2013-03-03T14:06:01Z</time>
      </trkpt>
      <trkpt lat="44.73508" lon="-0.35954">
        <ele>90</ele>
        <time>2013-03-03T14:06:02Z</time>
      </trkpt>
      <trkpt lat="44.7349" lon="-0.35961">
        <ele>90</ele>
        <time>2013-03-03T14:06:09Z</time>
      </trkpt>
      <trkpt lat="44.73467" lon="-0.3597">
        <ele>90</ele>
        <time>2013-03-03T14:06:16Z</time>
      </trkpt>
      <trkpt lat="44.7344" lon="-0.35983">
        <ele>89</ele>
        <time>2013-03-03T14:06:24Z</time>
      </trkpt>
      <trkpt lat="44.73393" lon="-0.36">
        <ele>89</ele>
        <time>2013-03-03T14:06:35Z</time>
      </trkpt>
      <trkpt lat="44.73388" lon="-0.36001">
        <ele>89</ele>
        <time>2013-03-03T14:06:36Z</time>
      </trkpt>
      <trkpt lat="44.73371" lon="-0.3601">
        <ele>88</ele>
        <time>2013-03-03T14:06:40Z</time>
      </trkpt>
      <trkpt lat="44.73367" lon="-0.36012">
        <ele>88</ele>
        <time>2013-03-03T14:06:41Z</time>
      </trkpt>
      <trkpt lat="44.73332" lon="-0.36028">
        <ele>87</ele>
        <time>2013-03-03T14:06:49Z</time>
      </trkpt>
      <trkpt lat="44.73285" lon="-0.36047">
        <ele>87</ele>
        <time>2013-03-03T14:06:59Z</time>
      </trkpt>
      <trkpt lat="44.73239" lon="-0.36065">
        <ele>88</ele>
        <time>2013-03-03T14:07:10Z</time>
      </trkpt>
      <trkpt lat="44.7321" lon="-0.36077">
        <ele>89</ele>
        <time>2013-03-03T14:07:19Z</time>
      </trkpt>
      <trkpt lat="44.73189" lon="-0.36083">
        <ele>90</ele>
        <time>2013-03-03T14:07:26Z</time>
      </trkpt>
      <trkpt lat="44.73186" lon="-0.36079">
        <ele>90</ele>
        <time>2013-03-03T14:07:27Z</time>
      </trkpt>
      <trkpt lat="44.73184" lon="-0.36075">
        <ele>90</ele>
        <time>2013-03-03T14:07:28Z</time>
      </trkpt>
      <trkpt lat="44.73184" lon="-0.36071">
        <ele>90</ele>
        <time>2013-03-03T14:07:29Z</time>
      </trkpt>
      <trkpt lat="44.73183" lon="-0.36065">
        <ele>90</ele>
        <time>2013-03-03T14:07:30Z</time>
      </trkpt>
      <trkpt lat="44.73179" lon="-0.36031">
        <ele>90</ele>
        <time>2013-03-03T14:07:37Z</time>
      </trkpt>
      <trkpt lat="44.73172" lon="-0.35975">
        <ele>91</ele>
        <time>2013-03-03T14:07:48Z</time>
      </trkpt>
      <trkpt lat="44.73164" lon="-0.35926">
        <ele>91</ele>
        <time>2013-03-03T14:07:57Z</time>
      </trkpt>
      <trkpt lat="44.73157" lon="-0.35861">
        <ele>92</ele>
        <time>2013-03-03T14:08:09Z</time>
      </trkpt>
      <trkpt lat="44.7315" lon="-0.35816">
        <ele>91</ele>
        <time>2013-03-03T14:08:19Z</time>
      </trkpt>
      <trkpt lat="44.73141" lon="-0.35784">
        <ele>91</ele>
        <time>2013-03-03T14:08:28Z</time>
      </trkpt>
      <trkpt lat="44.73139" lon="-0.35778">
        <ele>91</ele>
        <time>2013-03-03T14:08:32Z</time>
      </trkpt>
      <trkpt lat="44.73139" lon="-0.35778">
        <ele>91</ele>
        <time>2013-03-03T14:08:41Z</time>
      </trkpt>
      <trkpt lat="44.73139" lon="-0.35775">
        <ele>91</ele>
        <time>2013-03-03T14:08:47Z</time>
      </trkpt>
      <trkpt lat="44.7314" lon="-0.35773">
        <ele>91</ele>
        <time>2013-03-03T14:08:48Z</time>
      </trkpt>
      <trkpt lat="44.73139" lon="-0.35771">
        <ele>91</ele>
        <time>2013-03-03T14:08:49Z</time>
      </trkpt>
      <trkpt lat="44.73138" lon="-0.3577">
        <ele>91</ele>
        <time>2013-03-03T14:08:50Z</time>
      </trkpt>
      <trkpt lat="44.73137" lon="-0.35768">
        <ele>91</ele>
        <time>2013-03-03T14:08:51Z</time>
      </trkpt>
      <trkpt lat="44.73128" lon="-0.35753">
        <ele>91</ele>
        <time>2013-03-03T14:08:56Z</time>
      </trkpt>
      <trkpt lat="44.73115" lon="-0.35733">
        <ele>91</ele>
        <time>2013-03-03T14:09:03Z</time>
      </trkpt>
      <trkpt lat="44.73094" lon="-0.35716">
        <ele>90</ele>
        <time>2013-03-03T14:09:12Z</time>
      </trkpt>
      <trkpt lat="44.73085" lon="-0.35713">
        <ele>90</ele>
        <time>2013-03-03T14:09:14Z</time>
      </trkpt>
      <trkpt lat="44.73081" lon="-0.35711">
        <ele>90</ele>
        <time>2013-03-03T14:09:15Z</time>
      </trkpt>
      <trkpt lat="44.73077" lon="-0.3571">
        <ele>90</ele>
        <time>2013-03-03T14:09:16Z</time>
      </trkpt>
      <trkpt lat="44.73072" lon="-0.35709">
        <ele>90</ele>
        <time>2013-03-03T14:09:17Z</time>
      </trkpt>
      <trkpt lat="44.73067" lon="-0.35708">
        <ele>90</ele>
        <time>2013-03-03T14:09:18Z</time>
      </trkpt>
      <trkpt lat="44.73036" lon="-0.35708">
        <ele>89</ele>
        <time>2013-03-03T14:09:23Z</time>
      </trkpt>
      <trkpt lat="44.73004" lon="-0.35716">
        <ele>87</ele>
        <time>2013-03-03T14:09:29Z</time>
      </trkpt>
      <trkpt lat="44.72972" lon="-0.35726">
        <ele>83</ele>
        <time>2013-03-03T14:09:35Z</time>
      </trkpt>
      <trkpt lat="44.72966" lon="-0.35726">
        <ele>82</ele>
        <time>2013-03-03T14:09:36Z</time>
      </trkpt>
      <trkpt lat="44.7296" lon="-0.35724">
        <ele>81</ele>
        <time>2013-03-03T14:09:37Z</time>
      </trkpt>
      <trkpt lat="44.72953" lon="-0.35719">
        <ele>80</ele>
        <time>2013-03-03T14:09:38Z</time>
      </trkpt>
      <trkpt lat="44.72947" lon="-0.35713">
        <ele>80</ele>
        <time>2013-03-03T14:09:39Z</time>
      </trkpt>
      <trkpt lat="44.72941" lon="-0.35707">
        <ele>79</ele>
        <time>2013-03-03T14:09:40Z</time>
      </trkpt>
      <trkpt lat="44.7293" lon="-0.35694">
        <ele>78</ele>
        <time>2013-03-03T14:09:42Z</time>
      </trkpt>
      <trkpt lat="44.7292" lon="-0.3568">
        <ele>78</ele>
        <time>2013-03-03T14:09:44Z</time>
      </trkpt>
      <trkpt lat="44.72915" lon="-0.35672">
        <ele>78</ele>
        <time>2013-03-03T14:09:45Z</time>
      </trkpt>
      <trkpt lat="44.72912" lon="-0.35664">
        <ele>77</ele>
        <time>2013-03-03T14:09:46Z</time>
      </trkpt>
      <trkpt lat="44.72907" lon="-0.35649">
        <ele>77</ele>
        <time>2013-03-03T14:09:48Z</time>
      </trkpt>
      <trkpt lat="44.72901" lon="-0.35629">
        <ele>77</ele>
        <time>2013-03-03T14:09:52Z</time>
      </trkpt>
      <trkpt lat="44.72894" lon="-0.35617">
        <ele>77</ele>
        <time>2013-03-03T14:09:56Z</time>
      </trkpt>
      <trkpt lat="44.72886" lon="-0.35616">
        <ele>76</ele>
        <time>2013-03-03T14:09:58Z</time>
      </trkpt>
      <trkpt lat="44.72882" lon="-0.35619">
        <ele>75</ele>
        <time>2013-03-03T14:09:59Z</time>
      </trkpt>
      <trkpt lat="44.72866" lon="-0.35634">
        <ele>72</ele>
        <time>2013-03-03T14:10:04Z</time>
      </trkpt>
      <trkpt lat="44.72858" lon="-0.35635">
        <ele>71</ele>
        <time>2013-03-03T14:10:06Z</time>
      </trkpt>
      <trkpt lat="44.72855" lon="-0.35631">
        <ele>71</ele>
        <time>2013-03-03T14:10:07Z</time>
      </trkpt>
      <trkpt lat="44.72853" lon="-0.35626">
        <ele>71</ele>
        <time>2013-03-03T14:10:08Z</time>
      </trkpt>
      <trkpt lat="44.72851" lon="-0.3562">
        <ele>71</ele>
        <time>2013-03-03T14:10:09Z</time>
      </trkpt>
      <trkpt lat="44.72849" lon="-0.35615">
        <ele>70</ele>
        <time>2013-03-03T14:10:10Z</time>
      </trkpt>
      <trkpt lat="44.72841" lon="-0.35597">
        <ele>70</ele>
        <time>2013-03-03T14:10:14Z</time>
      </trkpt>
      <trkpt lat="44.7283" lon="-0.3556">
        <ele>69</ele>
        <time>2013-03-03T14:10:21Z</time>
      </trkpt>
      <trkpt lat="44.72821" lon="-0.35537">
        <ele>68</ele>
        <time>2013-03-03T14:10:25Z</time>
      </trkpt>
      <trkpt lat="44.72804" lon="-0.35494">
        <ele>65</ele>
        <time>2013-03-03T14:10:32Z</time>
      </trkpt>
      <trkpt lat="44.7278" lon="-0.35504">
        <ele>62</ele>
        <time>2013-03-03T14:10:37Z</time>
      </trkpt>
      <trkpt lat="44.72733" lon="-0.35539">
        <ele>57</ele>
        <time>2013-03-03T14:10:44Z</time>
      </trkpt>
      <trkpt lat="44.72685" lon="-0.35577">
        <ele>52</ele>
        <time>2013-03-03T14:10:51Z</time>
      </trkpt>
      <trkpt lat="44.72674" lon="-0.35586">
        <ele>52</ele>
        <time>2013-03-03T14:10:53Z</time>
      </trkpt>
      <trkpt lat="44.72659" lon="-0.35585">
        <ele>52</ele>
        <time>2013-03-03T14:10:57Z</time>
      </trkpt>
      <trkpt lat="44.72646" lon="-0.35561">
        <ele>50</ele>
        <time>2013-03-03T14:11:03Z</time>
      </trkpt>
      <trkpt lat="44.7263" lon="-0.35536">
        <ele>50</ele>
        <time>2013-03-03T14:11:09Z</time>
      </trkpt>
      <trkpt lat="44.72599" lon="-0.35489">
        <ele>48</ele>
        <time>2013-03-03T14:11:19Z</time>
      </trkpt>
      <trkpt lat="44.72573" lon="-0.35454">
        <ele>48</ele>
        <time>2013-03-03T14:11:27Z</time>
      </trkpt>
      <trkpt lat="44.72557" lon="-0.35418">
        <ele>46</ele>
        <time>2013-03-03T14:11:35Z</time>
      </trkpt>
      <trkpt lat="44.72556" lon="-0.35402">
        <ele>46</ele>
        <time>2013-03-03T14:11:41Z</time>
      </trkpt>
      <trkpt lat="44.72557" lon="-0.354">
        <ele>46</ele>
        <time>2013-03-03T14:11:42Z</time>
      </trkpt>
      <trkpt lat="44.72558" lon="-0.354">
        <ele>46</ele>
        <time>2013-03-03T14:11:47Z</time>
      </trkpt>
      <trkpt lat="44.72559" lon="-0.35398">
        <ele>46</ele>
        <time>2013-03-03T14:11:52Z</time>
      </trkpt>
      <trkpt lat="44.72559" lon="-0.35398">
        <ele>46</ele>
        <time>2013-03-03T14:12:00Z</time>
      </trkpt>
      <trkpt lat="44.72559" lon="-0.35397">
        <ele>46</ele>
        <time>2013-03-03T14:12:13Z</time>
      </trkpt>
      <trkpt lat="44.72557" lon="-0.35394">
        <ele>46</ele>
        <time>2013-03-03T14:12:21Z</time>
      </trkpt>
      <trkpt lat="44.72554" lon="-0.35393">
        <ele>46</ele>
        <time>2013-03-03T14:12:26Z</time>
      </trkpt>
      <trkpt lat="44.72554" lon="-0.35393">
        <ele>46</ele>
        <time>2013-03-03T14:12:33Z</time>
      </trkpt>
      <trkpt lat="44.72554" lon="-0.35393">
        <ele>46</ele>
        <time>2013-03-03T14:12:42Z</time>
      </trkpt>
      <trkpt lat="44.72554" lon="-0.35394">
        <ele>46</ele>
        <time>2013-03-03T14:12:50Z</time>
      </trkpt>
      <trkpt lat="44.72553" lon="-0.35394">
        <ele>45</ele>
        <time>2013-03-03T14:13:02Z</time>
      </trkpt>
      <trkpt lat="44.72552" lon="-0.35396">
        <ele>45</ele>
        <time>2013-03-03T14:13:14Z</time>
      </trkpt>
      <trkpt lat="44.72552" lon="-0.35395">
        <ele>45</ele>
        <time>2013-03-03T14:13:23Z</time>
      </trkpt>
      <trkpt lat="44.72552" lon="-0.35395">
        <ele>45</ele>
        <time>2013-03-03T14:13:27Z</time>
      </trkpt>
      <trkpt lat="44.72551" lon="-0.35397">
        <ele>45</ele>
        <time>2013-03-03T14:13:28Z</time>
      </trkpt>
      <trkpt lat="44.7255" lon="-0.35399">
        <ele>45</ele>
        <time>2013-03-03T14:13:29Z</time>
      </trkpt>
      <trkpt lat="44.7255" lon="-0.35402">
        <ele>45</ele>
        <time>2013-03-03T14:13:30Z</time>
      </trkpt>
      <trkpt lat="44.72549" lon="-0.35404">
        <ele>45</ele>
        <time>2013-03-03T14:13:31Z</time>
      </trkpt>
      <trkpt lat="44.72548" lon="-0.35407">
        <ele>44</ele>
        <time>2013-03-03T14:13:32Z</time>
      </trkpt>
      <trkpt lat="44.72547" lon="-0.35411">
        <ele>44</ele>
        <time>2013-03-03T14:13:33Z</time>
      </trkpt>
      <trkpt lat="44.72545" lon="-0.35415">
        <ele>44</ele>
        <time>2013-03-03T14:13:34Z</time>
      </trkpt>
      <trkpt lat="44.72543" lon="-0.35419">
        <ele>44</ele>
        <time>2013-03-03T14:13:35Z</time>
      </trkpt>
      <trkpt lat="44.7254" lon="-0.35421">
        <ele>43</ele>
        <time>2013-03-03T14:13:36Z</time>
      </trkpt>
      <trkpt lat="44.72537" lon="-0.35423">
        <ele>43</ele>
        <time>2013-03-03T14:13:37Z</time>
      </trkpt>
      <trkpt lat="44.72533" lon="-0.35424">
        <ele>43</ele>
        <time>2013-03-03T14:13:38Z</time>
      </trkpt>
      <trkpt lat="44.7253" lon="-0.35424">
        <ele>44</ele>
        <time>2013-03-03T14:13:39Z</time>
      </trkpt>
      <trkpt lat="44.72526" lon="-0.35422">
        <ele>44</ele>
        <time>2013-03-03T14:13:40Z</time>
      </trkpt>
      <trkpt lat="44.72522" lon="-0.3542">
        <ele>44</ele>
        <time>2013-03-03T14:13:41Z</time>
      </trkpt>
      <trkpt lat="44.72519" lon="-0.35418">
        <ele>44</ele>
        <time>2013-03-03T14:13:42Z</time>
      </trkpt>
      <trkpt lat="44.7251" lon="-0.3541">
        <ele>43</ele>
        <time>2013-03-03T14:13:45Z</time>
      </trkpt>
      <trkpt lat="44.72507" lon="-0.35406">
        <ele>43</ele>
        <time>2013-03-03T14:13:46Z</time>
      </trkpt>
      <trkpt lat="44.72504" lon="-0.35399">
        <ele>41</ele>
        <time>2013-03-03T14:13:47Z</time>
      </trkpt>
      <trkpt lat="44.72486" lon="-0.35348">
        <ele>36</ele>
        <time>2013-03-03T14:13:53Z</time>
      </trkpt>
      <trkpt lat="44.7248" lon="-0.35331">
        <ele>36</ele>
        <time>2013-03-03T14:13:55Z</time>
      </trkpt>
      <trkpt lat="44.72477" lon="-0.35324">
        <ele>35</ele>
        <time>2013-03-03T14:13:56Z</time>
      </trkpt>
      <trkpt lat="44.72475" lon="-0.35317">
        <ele>34</ele>
        <time>2013-03-03T14:13:57Z</time>
      </trkpt>
      <trkpt lat="44.72472" lon="-0.35302">
        <ele>33</ele>
        <time>2013-03-03T14:13:59Z</time>
      </trkpt>
      <trkpt lat="44.72464" lon="-0.35294">
        <ele>32</ele>
        <time>2013-03-03T14:15:09Z</time>
      </trkpt>
      <trkpt lat="44.72463" lon="-0.35295">
        <ele>32</ele>
        <time>2013-03-03T14:15:11Z</time>
      </trkpt>
      <trkpt lat="44.7246" lon="-0.35295">
        <ele>32</ele>
        <time>2013-03-03T14:15:14Z</time>
      </trkpt>
      <trkpt lat="44.72452" lon="-0.35298">
        <ele>32</ele>
        <time>2013-03-03T14:15:22Z</time>
      </trkpt>
      <trkpt lat="44.72447" lon="-0.35301">
        <ele>32</ele>
        <time>2013-03-03T14:15:30Z</time>
      </trkpt>
      <trkpt lat="44.72443" lon="-0.35305">
        <ele>33</ele>
        <time>2013-03-03T14:15:38Z</time>
      </trkpt>
      <trkpt lat="44.72439" lon="-0.3531">
        <ele>34</ele>
        <time>2013-03-03T14:15:46Z</time>
      </trkpt>
      <trkpt lat="44.72434" lon="-0.35316">
        <ele>36</ele>
        <time>2013-03-03T14:15:54Z</time>
      </trkpt>
      <trkpt lat="44.7243" lon="-0.35318">
        <ele>36</ele>
        <time>2013-03-03T14:16:01Z</time>
      </trkpt>
      <trkpt lat="44.72425" lon="-0.35321">
        <ele>37</ele>
        <time>2013-03-03T14:16:08Z</time>
      </trkpt>
      <trkpt lat="44.72422" lon="-0.35322">
        <ele>38</ele>
        <time>2013-03-03T14:16:15Z</time>
      </trkpt>
      <trkpt lat="44.72421" lon="-0.35323">
        <ele>38</ele>
        <time>2013-03-03T14:16:19Z</time>
      </trkpt>
      <trkpt lat="44.72406" lon="-0.3532">
        <ele>38</ele>
        <time>2013-03-03T14:16:26Z</time>
      </trkpt>
      <trkpt lat="44.72397" lon="-0.35321">
        <ele>38</ele>
        <time>2013-03-03T14:16:29Z</time>
      </trkpt>
      <trkpt lat="44.72377" lon="-0.35327">
        <ele>38</ele>
        <time>2013-03-03T14:16:36Z</time>
      </trkpt>
      <trkpt lat="44.72369" lon="-0.35332">
        <ele>39</ele>
        <time>2013-03-03T14:16:39Z</time>
      </trkpt>
      <trkpt lat="44.72362" lon="-0.35342">
        <ele>40</ele>
        <time>2013-03-03T14:16:44Z</time>
      </trkpt>
      <trkpt lat="44.72356" lon="-0.35342">
        <ele>40</ele>
        <time>2013-03-03T14:16:51Z</time>
      </trkpt>
      <trkpt lat="44.72353" lon="-0.35339">
        <ele>39</ele>
        <time>2013-03-03T14:17:01Z</time>
      </trkpt>
      <trkpt lat="44.72347" lon="-0.35335">
        <ele>38</ele>
        <time>2013-03-03T14:17:06Z</time>
      </trkpt>
      <trkpt lat="44.72334" lon="-0.35339">
        <ele>38</ele>
        <time>2013-03-03T14:17:11Z</time>
      </trkpt>
      <trkpt lat="44.72331" lon="-0.35341">
        <ele>38</ele>
        <time>2013-03-03T14:17:13Z</time>
      </trkpt>
      <trkpt lat="44.72317" lon="-0.35343">
        <ele>37</ele>
        <time>2013-03-03T14:17:21Z</time>
      </trkpt>
      <trkpt lat="44.72312" lon="-0.35341">
        <ele>37</ele>
        <time>2013-03-03T14:17:26Z</time>
      </trkpt>
      <trkpt lat="44.72299" lon="-0.35338">
        <ele>36</ele>
        <time>2013-03-03T14:17:31Z</time>
      </trkpt>
      <trkpt lat="44.72283" lon="-0.35332">
        <ele>34</ele>
        <time>2013-03-03T14:17:36Z</time>
      </trkpt>
      <trkpt lat="44.72277" lon="-0.3533">
        <ele>34</ele>
        <time>2013-03-03T14:17:39Z</time>
      </trkpt>
      <trkpt lat="44.72257" lon="-0.35336">
        <ele>34</ele>
        <time>2013-03-03T14:17:47Z</time>
      </trkpt>
      <trkpt lat="44.72244" lon="-0.35342">
        <ele>34</ele>
        <time>2013-03-03T14:17:54Z</time>
      </trkpt>
      <trkpt lat="44.72235" lon="-0.35348">
        <ele>34</ele>
        <time>2013-03-03T14:18:01Z</time>
      </trkpt>
      <trkpt lat="44.72227" lon="-0.35351">
        <ele>34</ele>
        <time>2013-03-03T14:18:07Z</time>
      </trkpt>
      <trkpt lat="44.72219" lon="-0.35361">
        <ele>33</ele>
        <time>2013-03-03T14:18:11Z</time>
      </trkpt>
      <trkpt lat="44.72209" lon="-0.35369">
        <ele>32</ele>
        <time>2013-03-03T14:18:17Z</time>
      </trkpt>
      <trkpt lat="44.72208" lon="-0.35371">
        <ele>32</ele>
        <time>2013-03-03T14:18:18Z</time>
      </trkpt>
      <trkpt lat="44.72203" lon="-0.35377">
        <ele>32</ele>
        <time>2013-03-03T14:18:21Z</time>
      </trkpt>
      <trkpt lat="44.72195" lon="-0.35388">
        <ele>32</ele>
        <time>2013-03-03T14:18:27Z</time>
      </trkpt>
      <trkpt lat="44.72193" lon="-0.35396">
        <ele>32</ele>
        <time>2013-03-03T14:18:33Z</time>
      </trkpt>
      <trkpt lat="44.72191" lon="-0.354">
        <ele>32</ele>
        <time>2013-03-03T14:18:45Z</time>
      </trkpt>
      <trkpt lat="44.72189" lon="-0.35402">
        <ele>32</ele>
        <time>2013-03-03T14:18:55Z</time>
      </trkpt>
      <trkpt lat="44.72185" lon="-0.35407">
        <ele>32</ele>
        <time>2013-03-03T14:19:12Z</time>
      </trkpt>
      <trkpt lat="44.72186" lon="-0.35407">
        <ele>32</ele>
        <time>2013-03-03T14:19:28Z</time>
      </trkpt>
      <trkpt lat="44.72185" lon="-0.35408">
        <ele>32</ele>
        <time>2013-03-03T14:19:45Z</time>
      </trkpt>
      <trkpt lat="44.72185" lon="-0.35409">
        <ele>32</ele>
        <time>2013-03-03T14:19:58Z</time>
      </trkpt>
      <trkpt lat="44.72185" lon="-0.3541">
        <ele>32</ele>
        <time>2013-03-03T14:20:01Z</time>
      </trkpt>
      <trkpt lat="44.72185" lon="-0.35424">
        <ele>33</ele>
        <time>2013-03-03T14:20:08Z</time>
      </trkpt>
      <trkpt lat="44.72186" lon="-0.35433">
        <ele>33</ele>
        <time>2013-03-03T14:20:16Z</time>
      </trkpt>
      <trkpt lat="44.72186" lon="-0.35441">
        <ele>34</ele>
        <time>2013-03-03T14:20:23Z</time>
      </trkpt>
      <trkpt lat="44.72186" lon="-0.35445">
        <ele>33</ele>
        <time>2013-03-03T14:20:30Z</time>
      </trkpt>
      <trkpt lat="44.72185" lon="-0.35447">
        <ele>33</ele>
        <time>2013-03-03T14:20:34Z</time>
      </trkpt>
      <trkpt lat="44.72188" lon="-0.35457">
        <ele>34</ele>
        <time>2013-03-03T14:20:41Z</time>
      </trkpt>
      <trkpt lat="44.72188" lon="-0.35465">
        <ele>34</ele>
        <time>2013-03-03T14:20:47Z</time>
      </trkpt>
      <trkpt lat="44.7219" lon="-0.35469">
        <ele>35</ele>
        <time>2013-03-03T14:20:55Z</time>
      </trkpt>
      <trkpt lat="44.7219" lon="-0.35478">
        <ele>35</ele>
        <time>2013-03-03T14:21:01Z</time>
      </trkpt>
      <trkpt lat="44.7219" lon="-0.35479">
        <ele>35</ele>
        <time>2013-03-03T14:21:02Z</time>
      </trkpt>
      <trkpt lat="44.72192" lon="-0.35485">
        <ele>35</ele>
        <time>2013-03-03T14:21:08Z</time>
      </trkpt>
      <trkpt lat="44.72195" lon="-0.35489">
        <ele>35</ele>
        <time>2013-03-03T14:21:16Z</time>
      </trkpt>
      <trkpt lat="44.722" lon="-0.35491">
        <ele>36</ele>
        <time>2013-03-03T14:21:25Z</time>
      </trkpt>
      <trkpt lat="44.72201" lon="-0.35493">
        <ele>36</ele>
        <time>2013-03-03T14:21:33Z</time>
      </trkpt>
      <trkpt lat="44.72201" lon="-0.35495">
        <ele>36</ele>
        <time>2013-03-03T14:21:43Z</time>
      </trkpt>
      <trkpt lat="44.72201" lon="-0.35501">
        <ele>36</ele>
        <time>2013-03-03T14:21:49Z</time>
      </trkpt>
      <trkpt lat="44.722" lon="-0.35504">
        <ele>36</ele>
        <time>2013-03-03T14:21:55Z</time>
      </trkpt>
      <trkpt lat="44.722" lon="-0.35504">
        <ele>36</ele>
        <time>2013-03-03T14:22:05Z</time>
      </trkpt>
      <trkpt lat="44.722" lon="-0.35505">
        <ele>36</ele>
        <time>2013-03-03T14:22:18Z</time>
      </trkpt>
      <trkpt lat="44.72198" lon="-0.35503">
        <ele>35</ele>
        <time>2013-03-03T14:22:27Z</time>
      </trkpt>
      <trkpt lat="44.72199" lon="-0.355">
        <ele>36</ele>
        <time>2013-03-03T14:22:34Z</time>
      </trkpt>
      <trkpt lat="44.72199" lon="-0.355">
        <ele>36</ele>
        <time>2013-03-03T14:22:45Z</time>
      </trkpt>
      <trkpt lat="44.722" lon="-0.355">
        <ele>36</ele>
        <time>2013-03-03T14:22:56Z</time>
      </trkpt>
      <trkpt lat="44.72201" lon="-0.35502">
        <ele>36</ele>
        <time>2013-03-03T14:23:04Z</time>
      </trkpt>
      <trkpt lat="44.72201" lon="-0.35502">
        <ele>36</ele>
        <time>2013-03-03T14:23:10Z</time>
      </trkpt>
      <trkpt lat="44.722" lon="-0.35501">
        <ele>36</ele>
        <time>2013-03-03T14:23:12Z</time>
      </trkpt>
      <trkpt lat="44.72199" lon="-0.355">
        <ele>36</ele>
        <time>2013-03-03T14:23:18Z</time>
      </trkpt>
      <trkpt lat="44.72199" lon="-0.35501">
        <ele>36</ele>
        <time>2013-03-03T14:23:29Z</time>
      </trkpt>
      <trkpt lat="44.72199" lon="-0.355">
        <ele>36</ele>
        <time>2013-03-03T14:23:35Z</time>
      </trkpt>
      <trkpt lat="44.72199" lon="-0.355">
        <ele>36</ele>
        <time>2013-03-03T14:23:43Z</time>
      </trkpt>
      <trkpt lat="44.722" lon="-0.355">
        <ele>36</ele>
        <time>2013-03-03T14:23:56Z</time>
      </trkpt>
      <trkpt lat="44.722" lon="-0.355">
        <ele>36</ele>
        <time>2013-03-03T14:24:11Z</time>
      </trkpt>
      <trkpt lat="44.722" lon="-0.355">
        <ele>36</ele>
        <time>2013-03-03T14:24:18Z</time>
      </trkpt>
      <trkpt lat="44.722" lon="-0.355">
        <ele>36</ele>
        <time>2013-03-03T14:24:26Z</time>
      </trkpt>
      <trkpt lat="44.722" lon="-0.35501">
        <ele>36</ele>
        <time>2013-03-03T14:24:37Z</time>
      </trkpt>
      <trkpt lat="44.722" lon="-0.35501">
        <ele>36</ele>
        <time>2013-03-03T14:24:46Z</time>
      </trkpt>
      <trkpt lat="44.72199" lon="-0.35501">
        <ele>36</ele>
        <time>2013-03-03T14:24:59Z</time>
      </trkpt>
      <trkpt lat="44.72199" lon="-0.355">
        <ele>36</ele>
        <time>2013-03-03T14:25:07Z</time>
      </trkpt>
      <trkpt lat="44.72199" lon="-0.35503">
        <ele>35</ele>
        <time>2013-03-03T14:25:11Z</time>
      </trkpt>
      <trkpt lat="44.722" lon="-0.35511">
        <ele>35</ele>
        <time>2013-03-03T14:25:16Z</time>
      </trkpt>
      <trkpt lat="44.72203" lon="-0.35536">
        <ele>35</ele>
        <time>2013-03-03T14:25:25Z</time>
      </trkpt>
      <trkpt lat="44.72204" lon="-0.35563">
        <ele>34</ele>
        <time>2013-03-03T14:25:33Z</time>
      </trkpt>
      <trkpt lat="44.72205" lon="-0.35588">
        <ele>34</ele>
        <time>2013-03-03T14:25:40Z</time>
      </trkpt>
      <trkpt lat="44.7221" lon="-0.35609">
        <ele>34</ele>
        <time>2013-03-03T14:25:47Z</time>
      </trkpt>
      <trkpt lat="44.72219" lon="-0.35641">
        <ele>35</ele>
        <time>2013-03-03T14:25:57Z</time>
      </trkpt>
      <trkpt lat="44.72225" lon="-0.35656">
        <ele>35</ele>
        <time>2013-03-03T14:26:03Z</time>
      </trkpt>
      <trkpt lat="44.72233" lon="-0.35672">
        <ele>35</ele>
        <time>2013-03-03T14:26:08Z</time>
      </trkpt>
      <trkpt lat="44.72242" lon="-0.35703">
        <ele>37</ele>
        <time>2013-03-03T14:26:16Z</time>
      </trkpt>
      <trkpt lat="44.7224" lon="-0.35729">
        <ele>36</ele>
        <time>2013-03-03T14:26:23Z</time>
      </trkpt>
      <trkpt lat="44.72232" lon="-0.35757">
        <ele>34</ele>
        <time>2013-03-03T14:26:30Z</time>
      </trkpt>
      <trkpt lat="44.72221" lon="-0.35785">
        <ele>33</ele>
        <time>2013-03-03T14:26:37Z</time>
      </trkpt>
      <trkpt lat="44.72209" lon="-0.35819">
        <ele>33</ele>
        <time>2013-03-03T14:26:43Z</time>
      </trkpt>
      <trkpt lat="44.72201" lon="-0.35845">
        <ele>34</ele>
        <time>2013-03-03T14:26:48Z</time>
      </trkpt>
      <trkpt lat="44.72198" lon="-0.35855">
        <ele>34</ele>
        <time>2013-03-03T14:26:53Z</time>
      </trkpt>
      <trkpt lat="44.72197" lon="-0.35857">
        <ele>34</ele>
        <time>2013-03-03T14:26:59Z</time>
      </trkpt>
      <trkpt lat="44.72196" lon="-0.35858">
        <ele>34</ele>
        <time>2013-03-03T14:27:12Z</time>
      </trkpt>
      <trkpt lat="44.72196" lon="-0.35858">
        <ele>34</ele>
        <time>2013-03-03T14:27:19Z</time>
      </trkpt>
      <trkpt lat="44.72195" lon="-0.35859">
        <ele>34</ele>
        <time>2013-03-03T14:27:22Z</time>
      </trkpt>
      <trkpt lat="44.7219" lon="-0.35861">
        <ele>34</ele>
        <time>2013-03-03T14:27:28Z</time>
      </trkpt>
      <trkpt lat="44.72189" lon="-0.35864">
        <ele>34</ele>
        <time>2013-03-03T14:27:37Z</time>
      </trkpt>
      <trkpt lat="44.72189" lon="-0.35872">
        <ele>34</ele>
        <time>2013-03-03T14:27:42Z</time>
      </trkpt>
      <trkpt lat="44.72179" lon="-0.35874">
        <ele>33</ele>
        <time>2013-03-03T14:27:47Z</time>
      </trkpt>
      <trkpt lat="44.7216" lon="-0.35855">
        <ele>31</ele>
        <time>2013-03-03T14:27:53Z</time>
      </trkpt>
      <trkpt lat="44.72151" lon="-0.35847">
        <ele>30</ele>
        <time>2013-03-03T14:27:55Z</time>
      </trkpt>
      <trkpt lat="44.72146" lon="-0.35844">
        <ele>29</ele>
        <time>2013-03-03T14:27:56Z</time>
      </trkpt>
      <trkpt lat="44.72141" lon="-0.35842">
        <ele>28</ele>
        <time>2013-03-03T14:27:57Z</time>
      </trkpt>
      <trkpt lat="44.72136" lon="-0.3584">
        <ele>28</ele>
        <time>2013-03-03T14:27:58Z</time>
      </trkpt>
      <trkpt lat="44.72131" lon="-0.35838">
        <ele>27</ele>
        <time>2013-03-03T14:27:59Z</time>
      </trkpt>
      <trkpt lat="44.72098" lon="-0.35824">
        <ele>25</ele>
        <time>2013-03-03T14:28:06Z</time>
      </trkpt>
      <trkpt lat="44.72092" lon="-0.3582">
        <ele>24</ele>
        <time>2013-03-03T14:28:08Z</time>
      </trkpt>
      <trkpt lat="44.72067" lon="-0.3581">
        <ele>23</ele>
        <time>2013-03-03T14:28:14Z</time>
      </trkpt>
      <trkpt lat="44.72061" lon="-0.35805">
        <ele>22</ele>
        <time>2013-03-03T14:28:17Z</time>
      </trkpt>
      <trkpt lat="44.72059" lon="-0.35804">
        <ele>22</ele>
        <time>2013-03-03T14:28:18Z</time>
      </trkpt>
      <trkpt lat="44.72057" lon="-0.35803">
        <ele>22</ele>
        <time>2013-03-03T14:28:19Z</time>
      </trkpt>
      <trkpt lat="44.72055" lon="-0.35804">
        <ele>22</ele>
        <time>2013-03-03T14:28:20Z</time>
      </trkpt>
      <trkpt lat="44.72052" lon="-0.35806">
        <ele>22</ele>
        <time>2013-03-03T14:28:21Z</time>
      </trkpt>
      <trkpt lat="44.7205" lon="-0.35809">
        <ele>22</ele>
        <time>2013-03-03T14:28:22Z</time>
      </trkpt>
      <trkpt lat="44.72049" lon="-0.35813">
        <ele>22</ele>
        <time>2013-03-03T14:28:23Z</time>
      </trkpt>
      <trkpt lat="44.72047" lon="-0.35817">
        <ele>22</ele>
        <time>2013-03-03T14:28:24Z</time>
      </trkpt>
      <trkpt lat="44.72046" lon="-0.35822">
        <ele>22</ele>
        <time>2013-03-03T14:28:25Z</time>
      </trkpt>
      <trkpt lat="44.72046" lon="-0.35826">
        <ele>22</ele>
        <time>2013-03-03T14:28:26Z</time>
      </trkpt>
      <trkpt lat="44.72047" lon="-0.35831">
        <ele>22</ele>
        <time>2013-03-03T14:28:27Z</time>
      </trkpt>
      <trkpt lat="44.72048" lon="-0.35835">
        <ele>22</ele>
        <time>2013-03-03T14:28:28Z</time>
      </trkpt>
      <trkpt lat="44.72049" lon="-0.35838">
        <ele>22</ele>
        <time>2013-03-03T14:28:29Z</time>
      </trkpt>
      <trkpt lat="44.72054" lon="-0.35857">
        <ele>23</ele>
        <time>2013-03-03T14:28:36Z</time>
      </trkpt>
      <trkpt lat="44.72061" lon="-0.35877">
        <ele>23</ele>
        <time>2013-03-03T14:28:42Z</time>
      </trkpt>
      <trkpt lat="44.72066" lon="-0.35907">
        <ele>23</ele>
        <time>2013-03-03T14:28:50Z</time>
      </trkpt>
      <trkpt lat="44.72069" lon="-0.35937">
        <ele>24</ele>
        <time>2013-03-03T14:28:57Z</time>
      </trkpt>
      <trkpt lat="44.7207" lon="-0.35969">
        <ele>25</ele>
        <time>2013-03-03T14:29:04Z</time>
      </trkpt>
      <trkpt lat="44.72068" lon="-0.36004">
        <ele>26</ele>
        <time>2013-03-03T14:29:12Z</time>
      </trkpt>
      <trkpt lat="44.72064" lon="-0.36033">
        <ele>27</ele>
        <time>2013-03-03T14:29:19Z</time>
      </trkpt>
      <trkpt lat="44.72056" lon="-0.36062">
        <ele>27</ele>
        <time>2013-03-03T14:29:27Z</time>
      </trkpt>
      <trkpt lat="44.72053" lon="-0.36092">
        <ele>27</ele>
        <time>2013-03-03T14:29:36Z</time>
      </trkpt>
      <trkpt lat="44.72052" lon="-0.36115">
        <ele>27</ele>
        <time>2013-03-03T14:29:43Z</time>
      </trkpt>
      <trkpt lat="44.72053" lon="-0.36141">
        <ele>27</ele>
        <time>2013-03-03T14:29:51Z</time>
      </trkpt>
      <trkpt lat="44.7206" lon="-0.36161">
        <ele>28</ele>
        <time>2013-03-03T14:29:58Z</time>
      </trkpt>
      <trkpt lat="44.72069" lon="-0.36185">
        <ele>29</ele>
        <time>2013-03-03T14:30:07Z</time>
      </trkpt>
      <trkpt lat="44.72079" lon="-0.36205">
        <ele>29</ele>
        <time>2013-03-03T14:30:14Z</time>
      </trkpt>
      <trkpt lat="44.72088" lon="-0.36226">
        <ele>29</ele>
        <time>2013-03-03T14:30:21Z</time>
      </trkpt>
      <trkpt lat="44.72095" lon="-0.36246">
        <ele>30</ele>
        <time>2013-03-03T14:30:27Z</time>
      </trkpt>
      <trkpt lat="44.72102" lon="-0.36265">
        <ele>30</ele>
        <time>2013-03-03T14:30:33Z</time>
      </trkpt>
      <trkpt lat="44.721" lon="-0.36289">
        <ele>29</ele>
        <time>2013-03-03T14:30:40Z</time>
      </trkpt>
      <trkpt lat="44.72095" lon="-0.36306">
        <ele>29</ele>
        <time>2013-03-03T14:30:45Z</time>
      </trkpt>
      <trkpt lat="44.72082" lon="-0.36331">
        <ele>28</ele>
        <time>2013-03-03T14:30:52Z</time>
      </trkpt>
      <trkpt lat="44.72079" lon="-0.36337">
        <ele>28</ele>
        <time>2013-03-03T14:30:53Z</time>
      </trkpt>
      <trkpt lat="44.72059" lon="-0.36384">
        <ele>28</ele>
        <time>2013-03-03T14:31:00Z</time>
      </trkpt>
      <trkpt lat="44.72045" lon="-0.36413">
        <ele>26</ele>
        <time>2013-03-03T14:31:05Z</time>
      </trkpt>
      <trkpt lat="44.72041" lon="-0.36423">
        <ele>26</ele>
        <time>2013-03-03T14:31:08Z</time>
      </trkpt>
      <trkpt lat="44.72041" lon="-0.36427">
        <ele>26</ele>
        <time>2013-03-03T14:31:09Z</time>
      </trkpt>
      <trkpt lat="44.72042" lon="-0.3643">
        <ele>26</ele>
        <time>2013-03-03T14:31:10Z</time>
      </trkpt>
      <trkpt lat="44.72043" lon="-0.36433">
        <ele>26</ele>
        <time>2013-03-03T14:31:11Z</time>
      </trkpt>
      <trkpt lat="44.72044" lon="-0.36435">
        <ele>26</ele>
        <time>2013-03-03T14:31:12Z</time>
      </trkpt>
      <trkpt lat="44.72045" lon="-0.36436">
        <ele>26</ele>
        <time>2013-03-03T14:31:13Z</time>
      </trkpt>
      <trkpt lat="44.72047" lon="-0.36437">
        <ele>27</ele>
        <time>2013-03-03T14:31:14Z</time>
      </trkpt>
      <trkpt lat="44.72048" lon="-0.36438">
        <ele>27</ele>
        <time>2013-03-03T14:31:15Z</time>
      </trkpt>
      <trkpt lat="44.72059" lon="-0.36443">
        <ele>29</ele>
        <time>2013-03-03T14:31:21Z</time>
      </trkpt>
      <trkpt lat="44.72074" lon="-0.36446">
        <ele>31</ele>
        <time>2013-03-03T14:31:29Z</time>
      </trkpt>
      <trkpt lat="44.72087" lon="-0.3645">
        <ele>32</ele>
        <time>2013-03-03T14:31:37Z</time>
      </trkpt>
      <trkpt lat="44.721" lon="-0.36454">
        <ele>34</ele>
        <time>2013-03-03T14:31:45Z</time>
      </trkpt>
      <trkpt lat="44.72111" lon="-0.36456">
        <ele>35</ele>
        <time>2013-03-03T14:31:52Z</time>
      </trkpt>
      <trkpt lat="44.72122" lon="-0.36458">
        <ele>36</ele>
        <time>2013-03-03T14:31:59Z</time>
      </trkpt>
      <trkpt lat="44.72136" lon="-0.3646">
        <ele>38</ele>
        <time>2013-03-03T14:32:08Z</time>
      </trkpt>
      <trkpt lat="44.7215" lon="-0.36463">
        <ele>39</ele>
        <time>2013-03-03T14:32:16Z</time>
      </trkpt>
      <trkpt lat="44.72159" lon="-0.36465">
        <ele>40</ele>
        <time>2013-03-03T14:32:22Z</time>
      </trkpt>
      <trkpt lat="44.7216" lon="-0.36465">
        <ele>40</ele>
        <time>2013-03-03T14:32:23Z</time>
      </trkpt>
      <trkpt lat="44.72161" lon="-0.36465">
        <ele>40</ele>
        <time>2013-03-03T14:32:24Z</time>
      </trkpt>
      <trkpt lat="44.72177" lon="-0.36469">
        <ele>42</ele>
        <time>2013-03-03T14:32:34Z</time>
      </trkpt>
      <trkpt lat="44.72185" lon="-0.36471">
        <ele>43</ele>
        <time>2013-03-03T14:32:40Z</time>
      </trkpt>
      <trkpt lat="44.72198" lon="-0.36477">
        <ele>44</ele>
        <time>2013-03-03T14:32:48Z</time>
      </trkpt>
      <trkpt lat="44.72207" lon="-0.36484">
        <ele>45</ele>
        <time>2013-03-03T14:32:55Z</time>
      </trkpt>
      <trkpt lat="44.72208" lon="-0.36485">
        <ele>45</ele>
        <time>2013-03-03T14:32:56Z</time>
      </trkpt>
      <trkpt lat="44.72221" lon="-0.36494">
        <ele>47</ele>
        <time>2013-03-03T14:33:05Z</time>
      </trkpt>
      <trkpt lat="44.72233" lon="-0.36503">
        <ele>48</ele>
        <time>2013-03-03T14:33:14Z</time>
      </trkpt>
      <trkpt lat="44.72242" lon="-0.36509">
        <ele>49</ele>
        <time>2013-03-03T14:33:21Z</time>
      </trkpt>
      <trkpt lat="44.72252" lon="-0.36518">
        <ele>50</ele>
        <time>2013-03-03T14:33:30Z</time>
      </trkpt>
      <trkpt lat="44.72263" lon="-0.36526">
        <ele>51</ele>
        <time>2013-03-03T14:33:38Z</time>
      </trkpt>
      <trkpt lat="44.72273" lon="-0.36534">
        <ele>53</ele>
        <time>2013-03-03T14:33:46Z</time>
      </trkpt>
      <trkpt lat="44.72275" lon="-0.36536">
        <ele>53</ele>
        <time>2013-03-03T14:33:48Z</time>
      </trkpt>
      <trkpt lat="44.72277" lon="-0.36537">
        <ele>53</ele>
        <time>2013-03-03T14:33:49Z</time>
      </trkpt>
      <trkpt lat="44.72278" lon="-0.36538">
        <ele>53</ele>
        <time>2013-03-03T14:33:50Z</time>
      </trkpt>
      <trkpt lat="44.72291" lon="-0.36544">
        <ele>55</ele>
        <time>2013-03-03T14:34:00Z</time>
      </trkpt>
      <trkpt lat="44.72303" lon="-0.36547">
        <ele>55</ele>
        <time>2013-03-03T14:34:09Z</time>
      </trkpt>
      <trkpt lat="44.72309" lon="-0.36546">
        <ele>56</ele>
        <time>2013-03-03T14:34:15Z</time>
      </trkpt>
      <trkpt lat="44.72315" lon="-0.36547">
        <ele>56</ele>
        <time>2013-03-03T14:34:23Z</time>
      </trkpt>
      <trkpt lat="44.72316" lon="-0.36547">
        <ele>56</ele>
        <time>2013-03-03T14:34:31Z</time>
      </trkpt>
      <trkpt lat="44.72316" lon="-0.36547">
        <ele>56</ele>
        <time>2013-03-03T14:34:43Z</time>
      </trkpt>
      <trkpt lat="44.72317" lon="-0.36547">
        <ele>56</ele>
        <time>2013-03-03T14:34:57Z</time>
      </trkpt>
      <trkpt lat="44.72316" lon="-0.36547">
        <ele>56</ele>
        <time>2013-03-03T14:35:15Z</time>
      </trkpt>
      <trkpt lat="44.72316" lon="-0.36547">
        <ele>56</ele>
        <time>2013-03-03T14:35:30Z</time>
      </trkpt>
      <trkpt lat="44.72316" lon="-0.36547">
        <ele>56</ele>
        <time>2013-03-03T14:35:44Z</time>
      </trkpt>
      <trkpt lat="44.72317" lon="-0.36546">
        <ele>56</ele>
        <time>2013-03-03T14:35:54Z</time>
      </trkpt>
      <trkpt lat="44.72317" lon="-0.36546">
        <ele>56</ele>
        <time>2013-03-03T14:36:04Z</time>
      </trkpt>
      <trkpt lat="44.72318" lon="-0.36545">
        <ele>56</ele>
        <time>2013-03-03T14:36:15Z</time>
      </trkpt>
      <trkpt lat="44.72318" lon="-0.36545">
        <ele>56</ele>
        <time>2013-03-03T14:36:29Z</time>
      </trkpt>
      <trkpt lat="44.72318" lon="-0.36545">
        <ele>56</ele>
        <time>2013-03-03T14:36:41Z</time>
      </trkpt>
      <trkpt lat="44.72318" lon="-0.36546">
        <ele>56</ele>
        <time>2013-03-03T14:36:57Z</time>
      </trkpt>
      <trkpt lat="44.72318" lon="-0.36546">
        <ele>56</ele>
        <time>2013-03-03T14:37:12Z</time>
      </trkpt>
      <trkpt lat="44.72319" lon="-0.36546">
        <ele>56</ele>
        <time>2013-03-03T14:37:28Z</time>
      </trkpt>
      <trkpt lat="44.72319" lon="-0.36546">
        <ele>56</ele>
        <time>2013-03-03T14:37:37Z</time>
      </trkpt>
      <trkpt lat="44.72319" lon="-0.36546">
        <ele>56</ele>
        <time>2013-03-03T14:37:51Z</time>
      </trkpt>
      <trkpt lat="44.72321" lon="-0.36546">
        <ele>56</ele>
        <time>2013-03-03T14:37:56Z</time>
      </trkpt>
      <trkpt lat="44.72321" lon="-0.36544">
        <ele>56</ele>
        <time>2013-03-03T14:37:57Z</time>
      </trkpt>
      <trkpt lat="44.72322" lon="-0.36543">
        <ele>56</ele>
        <time>2013-03-03T14:37:58Z</time>
      </trkpt>
      <trkpt lat="44.72324" lon="-0.36542">
        <ele>56</ele>
        <time>2013-03-03T14:37:59Z</time>
      </trkpt>
      <trkpt lat="44.72326" lon="-0.36541">
        <ele>56</ele>
        <time>2013-03-03T14:38:00Z</time>
      </trkpt>
      <trkpt lat="44.72328" lon="-0.36541">
        <ele>56</ele>
        <time>2013-03-03T14:38:01Z</time>
      </trkpt>
      <trkpt lat="44.72331" lon="-0.3654">
        <ele>56</ele>
        <time>2013-03-03T14:38:02Z</time>
      </trkpt>
      <trkpt lat="44.72334" lon="-0.36538">
        <ele>56</ele>
        <time>2013-03-03T14:38:03Z</time>
      </trkpt>
      <trkpt lat="44.72355" lon="-0.36531">
        <ele>55</ele>
        <time>2013-03-03T14:38:10Z</time>
      </trkpt>
      <trkpt lat="44.72358" lon="-0.36532">
        <ele>55</ele>
        <time>2013-03-03T14:38:12Z</time>
      </trkpt>
      <trkpt lat="44.72365" lon="-0.36534">
        <ele>55</ele>
        <time>2013-03-03T14:38:19Z</time>
      </trkpt>
      <trkpt lat="44.72375" lon="-0.36539">
        <ele>55</ele>
        <time>2013-03-03T14:38:26Z</time>
      </trkpt>
      <trkpt lat="44.72384" lon="-0.36546">
        <ele>55</ele>
        <time>2013-03-03T14:38:32Z</time>
      </trkpt>
      <trkpt lat="44.72395" lon="-0.36554">
        <ele>56</ele>
        <time>2013-03-03T14:38:39Z</time>
      </trkpt>
      <trkpt lat="44.72405" lon="-0.36563">
        <ele>56</ele>
        <time>2013-03-03T14:38:46Z</time>
      </trkpt>
      <trkpt lat="44.72412" lon="-0.36569">
        <ele>56</ele>
        <time>2013-03-03T14:38:52Z</time>
      </trkpt>
      <trkpt lat="44.72421" lon="-0.36573">
        <ele>57</ele>
        <time>2013-03-03T14:38:58Z</time>
      </trkpt>
      <trkpt lat="44.72425" lon="-0.36578">
        <ele>58</ele>
        <time>2013-03-03T14:39:03Z</time>
      </trkpt>
      <trkpt lat="44.72433" lon="-0.36584">
        <ele>59</ele>
        <time>2013-03-03T14:39:09Z</time>
      </trkpt>
      <trkpt lat="44.72441" lon="-0.3659">
        <ele>60</ele>
        <time>2013-03-03T14:39:16Z</time>
      </trkpt>
      <trkpt lat="44.72442" lon="-0.36591">
        <ele>60</ele>
        <time>2013-03-03T14:39:17Z</time>
      </trkpt>
      <trkpt lat="44.72444" lon="-0.36592">
        <ele>60</ele>
        <time>2013-03-03T14:39:18Z</time>
      </trkpt>
      <trkpt lat="44.72451" lon="-0.36598">
        <ele>61</ele>
        <time>2013-03-03T14:39:24Z</time>
      </trkpt>
      <trkpt lat="44.72463" lon="-0.36607">
        <ele>62</ele>
        <time>2013-03-03T14:39:34Z</time>
      </trkpt>
      <trkpt lat="44.72471" lon="-0.36612">
        <ele>63</ele>
        <time>2013-03-03T14:39:41Z</time>
      </trkpt>
      <trkpt lat="44.72477" lon="-0.36617">
        <ele>64</ele>
        <time>2013-03-03T14:39:48Z</time>
      </trkpt>
      <trkpt lat="44.72479" lon="-0.36619">
        <ele>64</ele>
        <time>2013-03-03T14:39:53Z</time>
      </trkpt>
      <trkpt lat="44.72479" lon="-0.36619">
        <ele>64</ele>
        <time>2013-03-03T14:40:00Z</time>
      </trkpt>
      <trkpt lat="44.72483" lon="-0.36622">
        <ele>65</ele>
        <time>2013-03-03T14:40:07Z</time>
      </trkpt>
      <trkpt lat="44.72483" lon="-0.36623">
        <ele>65</ele>
        <time>2013-03-03T14:40:08Z</time>
      </trkpt>
      <trkpt lat="44.72487" lon="-0.36626">
        <ele>65</ele>
        <time>2013-03-03T14:40:16Z</time>
      </trkpt>
      <trkpt lat="44.72488" lon="-0.36627">
        <ele>65</ele>
        <time>2013-03-03T14:40:21Z</time>
      </trkpt>
      <trkpt lat="44.72493" lon="-0.3663">
        <ele>66</ele>
        <time>2013-03-03T14:40:28Z</time>
      </trkpt>
      <trkpt lat="44.72495" lon="-0.36633">
        <ele>66</ele>
        <time>2013-03-03T14:40:34Z</time>
      </trkpt>
      <trkpt lat="44.72495" lon="-0.36633">
        <ele>66</ele>
        <time>2013-03-03T14:40:42Z</time>
      </trkpt>
      <trkpt lat="44.72498" lon="-0.36634">
        <ele>67</ele>
        <time>2013-03-03T14:40:49Z</time>
      </trkpt>
      <trkpt lat="44.72504" lon="-0.36639">
        <ele>68</ele>
        <time>2013-03-03T14:40:57Z</time>
      </trkpt>
      <trkpt lat="44.72509" lon="-0.36641">
        <ele>68</ele>
        <time>2013-03-03T14:41:03Z</time>
      </trkpt>
      <trkpt lat="44.72512" lon="-0.36643">
        <ele>69</ele>
        <time>2013-03-03T14:41:10Z</time>
      </trkpt>
      <trkpt lat="44.72517" lon="-0.36647">
        <ele>70</ele>
        <time>2013-03-03T14:41:18Z</time>
      </trkpt>
      <trkpt lat="44.72523" lon="-0.36651">
        <ele>71</ele>
        <time>2013-03-03T14:41:26Z</time>
      </trkpt>
      <trkpt lat="44.72528" lon="-0.36655">
        <ele>72</ele>
        <time>2013-03-03T14:41:34Z</time>
      </trkpt>
      <trkpt lat="44.72533" lon="-0.36659">
        <ele>73</ele>
        <time>2013-03-03T14:41:41Z</time>
      </trkpt>
      <trkpt lat="44.72536" lon="-0.36665">
        <ele>74</ele>
        <time>2013-03-03T14:41:48Z</time>
      </trkpt>
      <trkpt lat="44.72539" lon="-0.36672">
        <ele>75</ele>
        <time>2013-03-03T14:41:56Z</time>
      </trkpt>
      <trkpt lat="44.72539" lon="-0.36675">
        <ele>75</ele>
        <time>2013-03-03T14:41:59Z</time>
      </trkpt>
      <trkpt lat="44.72538" lon="-0.36678">
        <ele>75</ele>
        <time>2013-03-03T14:42:06Z</time>
      </trkpt>
      <trkpt lat="44.72534" lon="-0.36692">
        <ele>76</ele>
        <time>2013-03-03T14:42:13Z</time>
      </trkpt>
      <trkpt lat="44.72527" lon="-0.36712">
        <ele>77</ele>
        <time>2013-03-03T14:42:21Z</time>
      </trkpt>
      <trkpt lat="44.72522" lon="-0.36729">
        <ele>78</ele>
        <time>2013-03-03T14:42:29Z</time>
      </trkpt>
      <trkpt lat="44.72518" lon="-0.36741">
        <ele>79</ele>
        <time>2013-03-03T14:42:35Z</time>
      </trkpt>
      <trkpt lat="44.72511" lon="-0.36757">
        <ele>80</ele>
        <time>2013-03-03T14:42:43Z</time>
      </trkpt>
      <trkpt lat="44.72507" lon="-0.36773">
        <ele>79</ele>
        <time>2013-03-03T14:42:51Z</time>
      </trkpt>
      <trkpt lat="44.72505" lon="-0.36781">
        <ele>79</ele>
        <time>2013-03-03T14:42:56Z</time>
      </trkpt>
      <trkpt lat="44.72499" lon="-0.36786">
        <ele>79</ele>
        <time>2013-03-03T14:43:02Z</time>
      </trkpt>
      <trkpt lat="44.72499" lon="-0.36787">
        <ele>79</ele>
        <time>2013-03-03T14:43:07Z</time>
      </trkpt>
      <trkpt lat="44.72498" lon="-0.36787">
        <ele>79</ele>
        <time>2013-03-03T14:43:15Z</time>
      </trkpt>
      <trkpt lat="44.72496" lon="-0.36787">
        <ele>79</ele>
        <time>2013-03-03T14:43:22Z</time>
      </trkpt>
      <trkpt lat="44.72496" lon="-0.36787">
        <ele>79</ele>
        <time>2013-03-03T14:43:23Z</time>
      </trkpt>
      <trkpt lat="44.72492" lon="-0.36786">
        <ele>79</ele>
        <time>2013-03-03T14:43:27Z</time>
      </trkpt>
      <trkpt lat="44.72482" lon="-0.36779">
        <ele>79</ele>
        <time>2013-03-03T14:43:35Z</time>
      </trkpt>
      <trkpt lat="44.72468" lon="-0.36769">
        <ele>79</ele>
        <time>2013-03-03T14:43:43Z</time>
      </trkpt>
      <trkpt lat="44.72453" lon="-0.36755">
        <ele>79</ele>
        <time>2013-03-03T14:43:50Z</time>
      </trkpt>
      <trkpt lat="44.72433" lon="-0.36738">
        <ele>78</ele>
        <time>2013-03-03T14:43:58Z</time>
      </trkpt>
      <trkpt lat="44.7242" lon="-0.36727">
        <ele>77</ele>
        <time>2013-03-03T14:44:04Z</time>
      </trkpt>
      <trkpt lat="44.72408" lon="-0.36716">
        <ele>75</ele>
        <time>2013-03-03T14:44:11Z</time>
      </trkpt>
      <trkpt lat="44.72406" lon="-0.36709">
        <ele>75</ele>
        <time>2013-03-03T14:44:16Z</time>
      </trkpt>
      <trkpt lat="44.72405" lon="-0.36708">
        <ele>75</ele>
        <time>2013-03-03T14:44:20Z</time>
      </trkpt>
      <trkpt lat="44.72398" lon="-0.36706">
        <ele>74</ele>
        <time>2013-03-03T14:44:27Z</time>
      </trkpt>
      <trkpt lat="44.72398" lon="-0.36706">
        <ele>74</ele>
        <time>2013-03-03T14:44:37Z</time>
      </trkpt>
      <trkpt lat="44.72399" lon="-0.36707">
        <ele>74</ele>
        <time>2013-03-03T14:44:48Z</time>
      </trkpt>
      <trkpt lat="44.72398" lon="-0.36706">
        <ele>74</ele>
        <time>2013-03-03T14:44:56Z</time>
      </trkpt>
      <trkpt lat="44.72397" lon="-0.36707">
        <ele>74</ele>
        <time>2013-03-03T14:45:03Z</time>
      </trkpt>
      <trkpt lat="44.72396" lon="-0.36708">
        <ele>74</ele>
        <time>2013-03-03T14:45:09Z</time>
      </trkpt>
      <trkpt lat="44.72396" lon="-0.36709">
        <ele>74</ele>
        <time>2013-03-03T14:45:17Z</time>
      </trkpt>
      <trkpt lat="44.72396" lon="-0.3671">
        <ele>74</ele>
        <time>2013-03-03T14:45:23Z</time>
      </trkpt>
      <trkpt lat="44.72396" lon="-0.36711">
        <ele>74</ele>
        <time>2013-03-03T14:45:27Z</time>
      </trkpt>
      <trkpt lat="44.7239" lon="-0.36723">
        <ele>75</ele>
        <time>2013-03-03T14:45:34Z</time>
      </trkpt>
      <trkpt lat="44.72384" lon="-0.36742">
        <ele>76</ele>
        <time>2013-03-03T14:45:42Z</time>
      </trkpt>
      <trkpt lat="44.72377" lon="-0.36763">
        <ele>75</ele>
        <time>2013-03-03T14:45:49Z</time>
      </trkpt>
      <trkpt lat="44.72371" lon="-0.36781">
        <ele>75</ele>
        <time>2013-03-03T14:45:56Z</time>
      </trkpt>
      <trkpt lat="44.72364" lon="-0.36784">
        <ele>73</ele>
        <time>2013-03-03T14:46:00Z</time>
      </trkpt>
      <trkpt lat="44.72348" lon="-0.36771">
        <ele>70</ele>
        <time>2013-03-03T14:46:07Z</time>
      </trkpt>
      <trkpt lat="44.72322" lon="-0.36754">
        <ele>66</ele>
        <time>2013-03-03T14:46:15Z</time>
      </trkpt>
      <trkpt lat="44.72302" lon="-0.3674">
        <ele>62</ele>
        <time>2013-03-03T14:46:21Z</time>
      </trkpt>
      <trkpt lat="44.72293" lon="-0.36734">
        <ele>61</ele>
        <time>2013-03-03T14:46:24Z</time>
      </trkpt>
      <trkpt lat="44.72273" lon="-0.36726">
        <ele>58</ele>
        <time>2013-03-03T14:46:30Z</time>
      </trkpt>
      <trkpt lat="44.7227" lon="-0.36725">
        <ele>58</ele>
        <time>2013-03-03T14:46:32Z</time>
      </trkpt>
      <trkpt lat="44.72263" lon="-0.36727">
        <ele>57</ele>
        <time>2013-03-03T14:46:38Z</time>
      </trkpt>
      <trkpt lat="44.72254" lon="-0.36743">
        <ele>56</ele>
        <time>2013-03-03T14:46:47Z</time>
      </trkpt>
      <trkpt lat="44.72248" lon="-0.36762">
        <ele>57</ele>
        <time>2013-03-03T14:46:55Z</time>
      </trkpt>
      <trkpt lat="44.72242" lon="-0.36775">
        <ele>59</ele>
        <time>2013-03-03T14:47:01Z</time>
      </trkpt>
      <trkpt lat="44.72241" lon="-0.3678">
        <ele>59</ele>
        <time>2013-03-03T14:47:04Z</time>
      </trkpt>
      <trkpt lat="44.7224" lon="-0.36788">
        <ele>60</ele>
        <time>2013-03-03T14:47:10Z</time>
      </trkpt>
      <trkpt lat="44.72238" lon="-0.36788">
        <ele>60</ele>
        <time>2013-03-03T14:48:01Z</time>
      </trkpt>
      <trkpt lat="44.72232" lon="-0.36787">
        <ele>60</ele>
        <time>2013-03-03T14:48:08Z</time>
      </trkpt>
      <trkpt lat="44.7223" lon="-0.36788">
        <ele>60</ele>
        <time>2013-03-03T14:48:16Z</time>
      </trkpt>
      <trkpt lat="44.72228" lon="-0.36785">
        <ele>60</ele>
        <time>2013-03-03T14:48:23Z</time>
      </trkpt>
      <trkpt lat="44.72227" lon="-0.36783">
        <ele>59</ele>
        <time>2013-03-03T14:48:31Z</time>
      </trkpt>
      <trkpt lat="44.72225" lon="-0.36782">
        <ele>59</ele>
        <time>2013-03-03T14:48:38Z</time>
      </trkpt>
      <trkpt lat="44.72221" lon="-0.36787">
        <ele>60</ele>
        <time>2013-03-03T14:48:45Z</time>
      </trkpt>
      <trkpt lat="44.72219" lon="-0.36794">
        <ele>60</ele>
        <time>2013-03-03T14:48:52Z</time>
      </trkpt>
      <trkpt lat="44.72217" lon="-0.36801">
        <ele>61</ele>
        <time>2013-03-03T14:48:59Z</time>
      </trkpt>
      <trkpt lat="44.72216" lon="-0.36807">
        <ele>62</ele>
        <time>2013-03-03T14:49:05Z</time>
      </trkpt>
      <trkpt lat="44.72216" lon="-0.36815">
        <ele>63</ele>
        <time>2013-03-03T14:49:12Z</time>
      </trkpt>
      <trkpt lat="44.72216" lon="-0.36816">
        <ele>63</ele>
        <time>2013-03-03T14:49:13Z</time>
      </trkpt>
      <trkpt lat="44.72215" lon="-0.36825">
        <ele>64</ele>
        <time>2013-03-03T14:49:20Z</time>
      </trkpt>
      <trkpt lat="44.72214" lon="-0.36834">
        <ele>65</ele>
        <time>2013-03-03T14:49:28Z</time>
      </trkpt>
      <trkpt lat="44.72213" lon="-0.36843">
        <ele>66</ele>
        <time>2013-03-03T14:49:36Z</time>
      </trkpt>
      <trkpt lat="44.72213" lon="-0.3685">
        <ele>67</ele>
        <time>2013-03-03T14:49:43Z</time>
      </trkpt>
      <trkpt lat="44.72212" lon="-0.36857">
        <ele>68</ele>
        <time>2013-03-03T14:49:50Z</time>
      </trkpt>
      <trkpt lat="44.72212" lon="-0.36859">
        <ele>68</ele>
        <time>2013-03-03T14:49:56Z</time>
      </trkpt>
      <trkpt lat="44.7221" lon="-0.3686">
        <ele>68</ele>
        <time>2013-03-03T14:50:02Z</time>
      </trkpt>
      <trkpt lat="44.7221" lon="-0.3686">
        <ele>68</ele>
        <time>2013-03-03T14:50:08Z</time>
      </trkpt>
      <trkpt lat="44.72214" lon="-0.36863">
        <ele>69</ele>
        <time>2013-03-03T14:50:14Z</time>
      </trkpt>
      <trkpt lat="44.72218" lon="-0.36865">
        <ele>69</ele>
        <time>2013-03-03T14:50:22Z</time>
      </trkpt>
      <trkpt lat="44.72219" lon="-0.36865">
        <ele>69</ele>
        <time>2013-03-03T14:50:25Z</time>
      </trkpt>
      <trkpt lat="44.72235" lon="-0.36871">
        <ele>71</ele>
        <time>2013-03-03T14:50:34Z</time>
      </trkpt>
      <trkpt lat="44.72245" lon="-0.36876">
        <ele>71</ele>
        <time>2013-03-03T14:50:40Z</time>
      </trkpt>
      <trkpt lat="44.72257" lon="-0.36881">
        <ele>72</ele>
        <time>2013-03-03T14:50:47Z</time>
      </trkpt>
      <trkpt lat="44.72274" lon="-0.3689">
        <ele>72</ele>
        <time>2013-03-03T14:50:57Z</time>
      </trkpt>
      <trkpt lat="44.72287" lon="-0.36897">
        <ele>73</ele>
        <time>2013-03-03T14:51:05Z</time>
      </trkpt>
      <trkpt lat="44.723" lon="-0.36905">
        <ele>73</ele>
        <time>2013-03-03T14:51:12Z</time>
      </trkpt>
      <trkpt lat="44.72303" lon="-0.36911">
        <ele>74</ele>
        <time>2013-03-03T14:51:15Z</time>
      </trkpt>
      <trkpt lat="44.72305" lon="-0.36933">
        <ele>76</ele>
        <time>2013-03-03T14:51:23Z</time>
      </trkpt>
      <trkpt lat="44.72307" lon="-0.36957">
        <ele>76</ele>
        <time>2013-03-03T14:51:31Z</time>
      </trkpt>
      <trkpt lat="44.72309" lon="-0.36973">
        <ele>76</ele>
        <time>2013-03-03T14:51:38Z</time>
      </trkpt>
      <trkpt lat="44.72309" lon="-0.36984">
        <ele>76</ele>
        <time>2013-03-03T14:51:46Z</time>
      </trkpt>
      <trkpt lat="44.72309" lon="-0.36988">
        <ele>76</ele>
        <time>2013-03-03T14:51:49Z</time>
      </trkpt>
      <trkpt lat="44.72308" lon="-0.36993">
        <ele>76</ele>
        <time>2013-03-03T14:51:54Z</time>
      </trkpt>
      <trkpt lat="44.72306" lon="-0.36997">
        <ele>76</ele>
        <time>2013-03-03T14:51:58Z</time>
      </trkpt>
      <trkpt lat="44.72296" lon="-0.37006">
        <ele>76</ele>
        <time>2013-03-03T14:52:06Z</time>
      </trkpt>
      <trkpt lat="44.72292" lon="-0.37008">
        <ele>76</ele>
        <time>2013-03-03T14:52:08Z</time>
      </trkpt>
      <trkpt lat="44.72269" lon="-0.37028">
        <ele>75</ele>
        <time>2013-03-03T14:52:16Z</time>
      </trkpt>
      <trkpt lat="44.72237" lon="-0.37055">
        <ele>73</ele>
        <time>2013-03-03T14:52:22Z</time>
      </trkpt>
      <trkpt lat="44.72228" lon="-0.37062">
        <ele>73</ele>
        <time>2013-03-03T14:52:24Z</time>
      </trkpt>
      <trkpt lat="44.72223" lon="-0.37066">
        <ele>72</ele>
        <time>2013-03-03T14:52:25Z</time>
      </trkpt>
      <trkpt lat="44.72218" lon="-0.3707">
        <ele>71</ele>
        <time>2013-03-03T14:52:26Z</time>
      </trkpt>
      <trkpt lat="44.72213" lon="-0.37074">
        <ele>71</ele>
        <time>2013-03-03T14:52:27Z</time>
      </trkpt>
      <trkpt lat="44.72208" lon="-0.37079">
        <ele>70</ele>
        <time>2013-03-03T14:52:28Z</time>
      </trkpt>
      <trkpt lat="44.72174" lon="-0.37106">
        <ele>65</ele>
        <time>2013-03-03T14:52:34Z</time>
      </trkpt>
      <trkpt lat="44.72137" lon="-0.37137">
        <ele>58</ele>
        <time>2013-03-03T14:52:39Z</time>
      </trkpt>
      <trkpt lat="44.7211" lon="-0.3716">
        <ele>53</ele>
        <time>2013-03-03T14:52:44Z</time>
      </trkpt>
      <trkpt lat="44.72104" lon="-0.37165">
        <ele>52</ele>
        <time>2013-03-03T14:52:46Z</time>
      </trkpt>
      <trkpt lat="44.72102" lon="-0.37171">
        <ele>51</ele>
        <time>2013-03-03T14:52:47Z</time>
      </trkpt>
      <trkpt lat="44.72102" lon="-0.37178">
        <ele>50</ele>
        <time>2013-03-03T14:52:48Z</time>
      </trkpt>
      <trkpt lat="44.72103" lon="-0.37185">
        <ele>50</ele>
        <time>2013-03-03T14:52:49Z</time>
      </trkpt>
      <trkpt lat="44.72105" lon="-0.37192">
        <ele>50</ele>
        <time>2013-03-03T14:52:50Z</time>
      </trkpt>
      <trkpt lat="44.72107" lon="-0.37199">
        <ele>50</ele>
        <time>2013-03-03T14:52:51Z</time>
      </trkpt>
      <trkpt lat="44.72119" lon="-0.3725">
        <ele>47</ele>
        <time>2013-03-03T14:52:57Z</time>
      </trkpt>
      <trkpt lat="44.72125" lon="-0.3728">
        <ele>45</ele>
        <time>2013-03-03T14:53:01Z</time>
      </trkpt>
      <trkpt lat="44.72131" lon="-0.37306">
        <ele>44</ele>
        <time>2013-03-03T14:53:08Z</time>
      </trkpt>
      <trkpt lat="44.72132" lon="-0.37326">
        <ele>41</ele>
        <time>2013-03-03T14:53:15Z</time>
      </trkpt>
      <trkpt lat="44.72133" lon="-0.37332">
        <ele>40</ele>
        <time>2013-03-03T14:53:21Z</time>
      </trkpt>
      <trkpt lat="44.72133" lon="-0.37335">
        <ele>40</ele>
        <time>2013-03-03T14:53:27Z</time>
      </trkpt>
      <trkpt lat="44.72134" lon="-0.37335">
        <ele>40</ele>
        <time>2013-03-03T14:53:33Z</time>
      </trkpt>
      <trkpt lat="44.72134" lon="-0.37336">
        <ele>40</ele>
        <time>2013-03-03T14:53:35Z</time>
      </trkpt>
      <trkpt lat="44.72135" lon="-0.37338">
        <ele>40</ele>
        <time>2013-03-03T14:53:36Z</time>
      </trkpt>
      <trkpt lat="44.72136" lon="-0.37341">
        <ele>39</ele>
        <time>2013-03-03T14:53:41Z</time>
      </trkpt>
      <trkpt lat="44.72135" lon="-0.37342">
        <ele>39</ele>
        <time>2013-03-03T14:53:52Z</time>
      </trkpt>
      <trkpt lat="44.72135" lon="-0.37342">
        <ele>39</ele>
        <time>2013-03-03T14:54:09Z</time>
      </trkpt>
      <trkpt lat="44.72135" lon="-0.37342">
        <ele>39</ele>
        <time>2013-03-03T14:54:20Z</time>
      </trkpt>
      <trkpt lat="44.72136" lon="-0.37344">
        <ele>39</ele>
        <time>2013-03-03T14:54:27Z</time>
      </trkpt>
      <trkpt lat="44.72136" lon="-0.37345">
        <ele>39</ele>
        <time>2013-03-03T14:54:35Z</time>
      </trkpt>
      <trkpt lat="44.72137" lon="-0.37344">
        <ele>39</ele>
        <time>2013-03-03T14:54:54Z</time>
      </trkpt>
      <trkpt lat="44.72137" lon="-0.37345">
        <ele>39</ele>
        <time>2013-03-03T14:55:06Z</time>
      </trkpt>
      <trkpt lat="44.72137" lon="-0.37345">
        <ele>39</ele>
        <time>2013-03-03T14:55:16Z</time>
      </trkpt>
      <trkpt lat="44.72136" lon="-0.37345">
        <ele>39</ele>
        <time>2013-03-03T14:55:24Z</time>
      </trkpt>
      <trkpt lat="44.72137" lon="-0.37345">
        <ele>39</ele>
        <time>2013-03-03T14:55:45Z</time>
      </trkpt>
      <trkpt lat="44.72136" lon="-0.37345">
        <ele>39</ele>
        <time>2013-03-03T14:56:02Z</time>
      </trkpt>
      <trkpt lat="44.72138" lon="-0.37348">
        <ele>38</ele>
        <time>2013-03-03T14:56:09Z</time>
      </trkpt>
      <trkpt lat="44.72139" lon="-0.37348">
        <ele>38</ele>
        <time>2013-03-03T14:56:17Z</time>
      </trkpt>
      <trkpt lat="44.7214" lon="-0.37351">
        <ele>38</ele>
        <time>2013-03-03T14:56:31Z</time>
      </trkpt>
      <trkpt lat="44.7214" lon="-0.3735">
        <ele>38</ele>
        <time>2013-03-03T14:56:46Z</time>
      </trkpt>
      <trkpt lat="44.7214" lon="-0.37349">
        <ele>38</ele>
        <time>2013-03-03T14:57:01Z</time>
      </trkpt>
      <trkpt lat="44.72141" lon="-0.37349">
        <ele>38</ele>
        <time>2013-03-03T14:57:16Z</time>
      </trkpt>
      <trkpt lat="44.7214" lon="-0.37348">
        <ele>38</ele>
        <time>2013-03-03T14:57:25Z</time>
      </trkpt>
      <trkpt lat="44.7214" lon="-0.37349">
        <ele>38</ele>
        <time>2013-03-03T14:57:37Z</time>
      </trkpt>
      <trkpt lat="44.7214" lon="-0.37348">
        <ele>38</ele>
        <time>2013-03-03T14:57:47Z</time>
      </trkpt>
      <trkpt lat="44.72142" lon="-0.37346">
        <ele>39</ele>
        <time>2013-03-03T14:57:57Z</time>
      </trkpt>
      <trkpt lat="44.72144" lon="-0.37347">
        <ele>39</ele>
        <time>2013-03-03T14:58:05Z</time>
      </trkpt>
      <trkpt lat="44.72144" lon="-0.37346">
        <ele>39</ele>
        <time>2013-03-03T14:58:16Z</time>
      </trkpt>
      <trkpt lat="44.72146" lon="-0.37346">
        <ele>39</ele>
        <time>2013-03-03T14:58:18Z</time>
      </trkpt>
      <trkpt lat="44.72147" lon="-0.37346">
        <ele>39</ele>
        <time>2013-03-03T14:58:19Z</time>
      </trkpt>
      <trkpt lat="44.72148" lon="-0.37345">
        <ele>39</ele>
        <time>2013-03-03T14:58:20Z</time>
      </trkpt>
      <trkpt lat="44.72149" lon="-0.37344">
        <ele>39</ele>
        <time>2013-03-03T14:58:21Z</time>
      </trkpt>
      <trkpt lat="44.72151" lon="-0.37343">
        <ele>39</ele>
        <time>2013-03-03T14:58:22Z</time>
      </trkpt>
      <trkpt lat="44.72152" lon="-0.37343">
        <ele>40</ele>
        <time>2013-03-03T14:58:23Z</time>
      </trkpt>
      <trkpt lat="44.72153" lon="-0.37342">
        <ele>40</ele>
        <time>2013-03-03T14:58:24Z</time>
      </trkpt>
      <trkpt lat="44.72155" lon="-0.37341">
        <ele>40</ele>
        <time>2013-03-03T14:58:25Z</time>
      </trkpt>
      <trkpt lat="44.72156" lon="-0.37341">
        <ele>40</ele>
        <time>2013-03-03T14:58:26Z</time>
      </trkpt>
      <trkpt lat="44.7216" lon="-0.37339">
        <ele>40</ele>
        <time>2013-03-03T14:58:30Z</time>
      </trkpt>
      <trkpt lat="44.72161" lon="-0.37339">
        <ele>41</ele>
        <time>2013-03-03T14:58:31Z</time>
      </trkpt>
      <trkpt lat="44.72162" lon="-0.37338">
        <ele>41</ele>
        <time>2013-03-03T14:58:32Z</time>
      </trkpt>
      <trkpt lat="44.72165" lon="-0.37339">
        <ele>41</ele>
        <time>2013-03-03T14:58:35Z</time>
      </trkpt>
      <trkpt lat="44.72167" lon="-0.37341">
        <ele>40</ele>
        <time>2013-03-03T14:58:37Z</time>
      </trkpt>
      <trkpt lat="44.72171" lon="-0.37342">
        <ele>40</ele>
        <time>2013-03-03T14:58:41Z</time>
      </trkpt>
      <trkpt lat="44.72175" lon="-0.37334">
        <ele>42</ele>
        <time>2013-03-03T14:58:47Z</time>
      </trkpt>
      <trkpt lat="44.72176" lon="-0.3733">
        <ele>42</ele>
        <time>2013-03-03T14:58:49Z</time>
      </trkpt>
      <trkpt lat="44.72177" lon="-0.37326">
        <ele>43</ele>
        <time>2013-03-03T14:58:51Z</time>
      </trkpt>
      <trkpt lat="44.72181" lon="-0.37323">
        <ele>43</ele>
        <time>2013-03-03T14:58:55Z</time>
      </trkpt>
      <trkpt lat="44.72192" lon="-0.37316">
        <ele>45</ele>
        <time>2013-03-03T14:59:03Z</time>
      </trkpt>
      <trkpt lat="44.72201" lon="-0.37311">
        <ele>46</ele>
        <time>2013-03-03T14:59:09Z</time>
      </trkpt>
      <trkpt lat="44.72209" lon="-0.37306">
        <ele>47</ele>
        <time>2013-03-03T14:59:15Z</time>
      </trkpt>
      <trkpt lat="44.72218" lon="-0.373">
        <ele>48</ele>
        <time>2013-03-03T14:59:22Z</time>
      </trkpt>
      <trkpt lat="44.72224" lon="-0.37296">
        <ele>49</ele>
        <time>2013-03-03T14:59:27Z</time>
      </trkpt>
      <trkpt lat="44.72231" lon="-0.37292">
        <ele>49</ele>
        <time>2013-03-03T14:59:33Z</time>
      </trkpt>
      <trkpt lat="44.72234" lon="-0.37291">
        <ele>50</ele>
        <time>2013-03-03T14:59:35Z</time>
      </trkpt>
      <trkpt lat="44.72239" lon="-0.37289">
        <ele>50</ele>
        <time>2013-03-03T14:59:39Z</time>
      </trkpt>
      <trkpt lat="44.72244" lon="-0.37285">
        <ele>50</ele>
        <time>2013-03-03T14:59:43Z</time>
      </trkpt>
      <trkpt lat="44.7225" lon="-0.37282">
        <ele>51</ele>
        <time>2013-03-03T14:59:47Z</time>
      </trkpt>
      <trkpt lat="44.72252" lon="-0.37281">
        <ele>51</ele>
        <time>2013-03-03T14:59:54Z</time>
      </trkpt>
      <trkpt lat="44.72257" lon="-0.37279">
        <ele>51</ele>
        <time>2013-03-03T14:59:59Z</time>
      </trkpt>
      <trkpt lat="44.7227" lon="-0.3727">
        <ele>52</ele>
        <time>2013-03-03T15:00:08Z</time>
      </trkpt>
      <trkpt lat="44.72281" lon="-0.37264">
        <ele>53</ele>
        <time>2013-03-03T15:00:15Z</time>
      </trkpt>
      <trkpt lat="44.72293" lon="-0.37256">
        <ele>54</ele>
        <time>2013-03-03T15:00:23Z</time>
      </trkpt>
      <trkpt lat="44.72307" lon="-0.37249">
        <ele>55</ele>
        <time>2013-03-03T15:00:32Z</time>
      </trkpt>
      <trkpt lat="44.72318" lon="-0.37243">
        <ele>56</ele>
        <time>2013-03-03T15:00:39Z</time>
      </trkpt>
      <trkpt lat="44.72322" lon="-0.3724">
        <ele>56</ele>
        <time>2013-03-03T15:00:42Z</time>
      </trkpt>
      <trkpt lat="44.72328" lon="-0.37236">
        <ele>56</ele>
        <time>2013-03-03T15:00:47Z</time>
      </trkpt>
      <trkpt lat="44.72338" lon="-0.3723">
        <ele>56</ele>
        <time>2013-03-03T15:00:54Z</time>
      </trkpt>
      <trkpt lat="44.7235" lon="-0.37223">
        <ele>55</ele>
        <time>2013-03-03T15:01:04Z</time>
      </trkpt>
      <trkpt lat="44.7235" lon="-0.37212">
        <ele>56</ele>
        <time>2013-03-03T15:01:11Z</time>
      </trkpt>
      <trkpt lat="44.72345" lon="-0.37202">
        <ele>57</ele>
        <time>2013-03-03T15:01:19Z</time>
      </trkpt>
      <trkpt lat="44.72341" lon="-0.37193">
        <ele>58</ele>
        <time>2013-03-03T15:01:26Z</time>
      </trkpt>
      <trkpt lat="44.72341" lon="-0.37192">
        <ele>58</ele>
        <time>2013-03-03T15:01:27Z</time>
      </trkpt>
      <trkpt lat="44.7234" lon="-0.37179">
        <ele>59</ele>
        <time>2013-03-03T15:01:35Z</time>
      </trkpt>
      <trkpt lat="44.7234" lon="-0.37164">
        <ele>61</ele>
        <time>2013-03-03T15:01:44Z</time>
      </trkpt>
      <trkpt lat="44.72342" lon="-0.3715">
        <ele>62</ele>
        <time>2013-03-03T15:01:52Z</time>
      </trkpt>
      <trkpt lat="44.72342" lon="-0.37137">
        <ele>62</ele>
        <time>2013-03-03T15:01:59Z</time>
      </trkpt>
      <trkpt lat="44.72343" lon="-0.37125">
        <ele>63</ele>
        <time>2013-03-03T15:02:07Z</time>
      </trkpt>
      <trkpt lat="44.72344" lon="-0.37116">
        <ele>64</ele>
        <time>2013-03-03T15:02:13Z</time>
      </trkpt>
      <trkpt lat="44.72344" lon="-0.37104">
        <ele>66</ele>
        <time>2013-03-03T15:02:21Z</time>
      </trkpt>
      <trkpt lat="44.72345" lon="-0.37094">
        <ele>67</ele>
        <time>2013-03-03T15:02:27Z</time>
      </trkpt>
      <trkpt lat="44.72344" lon="-0.37088">
        <ele>67</ele>
        <time>2013-03-03T15:02:31Z</time>
      </trkpt>
      <trkpt lat="44.72345" lon="-0.37083">
        <ele>68</ele>
        <time>2013-03-03T15:02:35Z</time>
      </trkpt>
      <trkpt lat="44.72345" lon="-0.37068">
        <ele>69</ele>
        <time>2013-03-03T15:02:45Z</time>
      </trkpt>
      <trkpt lat="44.72345" lon="-0.3706">
        <ele>70</ele>
        <time>2013-03-03T15:02:51Z</time>
      </trkpt>
      <trkpt lat="44.72346" lon="-0.37047">
        <ele>71</ele>
        <time>2013-03-03T15:03:00Z</time>
      </trkpt>
      <trkpt lat="44.72346" lon="-0.37041">
        <ele>72</ele>
        <time>2013-03-03T15:03:04Z</time>
      </trkpt>
      <trkpt lat="44.72347" lon="-0.3703">
        <ele>73</ele>
        <time>2013-03-03T15:03:11Z</time>
      </trkpt>
      <trkpt lat="44.72347" lon="-0.37024">
        <ele>74</ele>
        <time>2013-03-03T15:03:15Z</time>
      </trkpt>
      <trkpt lat="44.72347" lon="-0.37021">
        <ele>74</ele>
        <time>2013-03-03T15:03:17Z</time>
      </trkpt>
      <trkpt lat="44.72346" lon="-0.37002">
        <ele>76</ele>
        <time>2013-03-03T15:03:27Z</time>
      </trkpt>
      <trkpt lat="44.72343" lon="-0.36984">
        <ele>76</ele>
        <time>2013-03-03T15:03:37Z</time>
      </trkpt>
      <trkpt lat="44.72346" lon="-0.36968">
        <ele>76</ele>
        <time>2013-03-03T15:03:45Z</time>
      </trkpt>
      <trkpt lat="44.72355" lon="-0.36957">
        <ele>77</ele>
        <time>2013-03-03T15:03:52Z</time>
      </trkpt>
      <trkpt lat="44.72367" lon="-0.36946">
        <ele>77</ele>
        <time>2013-03-03T15:04:01Z</time>
      </trkpt>
      <trkpt lat="44.72383" lon="-0.36934">
        <ele>77</ele>
        <time>2013-03-03T15:04:10Z</time>
      </trkpt>
      <trkpt lat="44.72397" lon="-0.36921">
        <ele>78</ele>
        <time>2013-03-03T15:04:18Z</time>
      </trkpt>
      <trkpt lat="44.72411" lon="-0.36909">
        <ele>79</ele>
        <time>2013-03-03T15:04:26Z</time>
      </trkpt>
      <trkpt lat="44.72425" lon="-0.36898">
        <ele>79</ele>
        <time>2013-03-03T15:04:35Z</time>
      </trkpt>
      <trkpt lat="44.72425" lon="-0.36897">
        <ele>79</ele>
        <time>2013-03-03T15:04:43Z</time>
      </trkpt>
      <trkpt lat="44.72424" lon="-0.36897">
        <ele>79</ele>
        <time>2013-03-03T15:04:58Z</time>
      </trkpt>
      <trkpt lat="44.72424" lon="-0.36898">
        <ele>79</ele>
        <time>2013-03-03T15:05:15Z</time>
      </trkpt>
      <trkpt lat="44.72424" lon="-0.36898">
        <ele>79</ele>
        <time>2013-03-03T15:05:33Z</time>
      </trkpt>
      <trkpt lat="44.72423" lon="-0.36899">
        <ele>79</ele>
        <time>2013-03-03T15:05:50Z</time>
      </trkpt>
      <trkpt lat="44.72423" lon="-0.36899">
        <ele>79</ele>
        <time>2013-03-03T15:05:58Z</time>
      </trkpt>
      <trkpt lat="44.72425" lon="-0.36898">
        <ele>79</ele>
        <time>2013-03-03T15:06:11Z</time>
      </trkpt>
      <trkpt lat="44.72431" lon="-0.36892">
        <ele>79</ele>
        <time>2013-03-03T15:06:16Z</time>
      </trkpt>
      <trkpt lat="44.72447" lon="-0.36868">
        <ele>79</ele>
        <time>2013-03-03T15:06:24Z</time>
      </trkpt>
      <trkpt lat="44.7246" lon="-0.36851">
        <ele>79</ele>
        <time>2013-03-03T15:06:31Z</time>
      </trkpt>
      <trkpt lat="44.72481" lon="-0.36825">
        <ele>79</ele>
        <time>2013-03-03T15:06:41Z</time>
      </trkpt>
      <trkpt lat="44.72492" lon="-0.36811">
        <ele>78</ele>
        <time>2013-03-03T15:06:46Z</time>
      </trkpt>
      <trkpt lat="44.72498" lon="-0.36806">
        <ele>78</ele>
        <time>2013-03-03T15:06:51Z</time>
      </trkpt>
      <trkpt lat="44.72499" lon="-0.36806">
        <ele>78</ele>
        <time>2013-03-03T15:07:04Z</time>
      </trkpt>
      <trkpt lat="44.72503" lon="-0.36804">
        <ele>78</ele>
        <time>2013-03-03T15:07:10Z</time>
      </trkpt>
      <trkpt lat="44.72503" lon="-0.36805">
        <ele>78</ele>
        <time>2013-03-03T15:07:15Z</time>
      </trkpt>
      <trkpt lat="44.72516" lon="-0.36805">
        <ele>77</ele>
        <time>2013-03-03T15:07:21Z</time>
      </trkpt>
      <trkpt lat="44.72537" lon="-0.36805">
        <ele>76</ele>
        <time>2013-03-03T15:07:27Z</time>
      </trkpt>
      <trkpt lat="44.72546" lon="-0.36806">
        <ele>76</ele>
        <time>2013-03-03T15:07:32Z</time>
      </trkpt>
      <trkpt lat="44.72548" lon="-0.36805">
        <ele>75</ele>
        <time>2013-03-03T15:07:39Z</time>
      </trkpt>
      <trkpt lat="44.72549" lon="-0.36805">
        <ele>75</ele>
        <time>2013-03-03T15:07:55Z</time>
      </trkpt>
      <trkpt lat="44.72549" lon="-0.36805">
        <ele>75</ele>
        <time>2013-03-03T15:08:11Z</time>
      </trkpt>
      <trkpt lat="44.72549" lon="-0.36806">
        <ele>75</ele>
        <time>2013-03-03T15:08:27Z</time>
      </trkpt>
      <trkpt lat="44.72548" lon="-0.36807">
        <ele>75</ele>
        <time>2013-03-03T15:08:43Z</time>
      </trkpt>
      <trkpt lat="44.72548" lon="-0.36808">
        <ele>75</ele>
        <time>2013-03-03T15:09:00Z</time>
      </trkpt>
      <trkpt lat="44.72548" lon="-0.36807">
        <ele>75</ele>
        <time>2013-03-03T15:09:09Z</time>
      </trkpt>
      <trkpt lat="44.72558" lon="-0.36805">
        <ele>75</ele>
        <time>2013-03-03T15:09:14Z</time>
      </trkpt>
      <trkpt lat="44.72577" lon="-0.36784">
        <ele>77</ele>
        <time>2013-03-03T15:09:23Z</time>
      </trkpt>
      <trkpt lat="44.72582" lon="-0.36776">
        <ele>77</ele>
        <time>2013-03-03T15:09:26Z</time>
      </trkpt>
      <trkpt lat="44.72597" lon="-0.36749">
        <ele>78</ele>
        <time>2013-03-03T15:09:36Z</time>
      </trkpt>
      <trkpt lat="44.72606" lon="-0.36725">
        <ele>79</ele>
        <time>2013-03-03T15:09:44Z</time>
      </trkpt>
      <trkpt lat="44.7261" lon="-0.36698">
        <ele>80</ele>
        <time>2013-03-03T15:09:52Z</time>
      </trkpt>
      <trkpt lat="44.7261" lon="-0.36666">
        <ele>80</ele>
        <time>2013-03-03T15:10:01Z</time>
      </trkpt>
      <trkpt lat="44.7261" lon="-0.3663">
        <ele>80</ele>
        <time>2013-03-03T15:10:11Z</time>
      </trkpt>
      <trkpt lat="44.72613" lon="-0.3659">
        <ele>79</ele>
        <time>2013-03-03T15:10:20Z</time>
      </trkpt>
      <trkpt lat="44.72619" lon="-0.36549">
        <ele>79</ele>
        <time>2013-03-03T15:10:29Z</time>
      </trkpt>
      <trkpt lat="44.72628" lon="-0.36512">
        <ele>79</ele>
        <time>2013-03-03T15:10:36Z</time>
      </trkpt>
      <trkpt lat="44.72648" lon="-0.36462">
        <ele>78</ele>
        <time>2013-03-03T15:10:44Z</time>
      </trkpt>
      <trkpt lat="44.72671" lon="-0.3642">
        <ele>77</ele>
        <time>2013-03-03T15:10:52Z</time>
      </trkpt>
      <trkpt lat="44.72684" lon="-0.3639">
        <ele>78</ele>
        <time>2013-03-03T15:11:00Z</time>
      </trkpt>
      <trkpt lat="44.72686" lon="-0.36383">
        <ele>79</ele>
        <time>2013-03-03T15:11:03Z</time>
      </trkpt>
      <trkpt lat="44.72685" lon="-0.3638">
        <ele>79</ele>
        <time>2013-03-03T15:11:04Z</time>
      </trkpt>
      <trkpt lat="44.72685" lon="-0.36379">
        <ele>79</ele>
        <time>2013-03-03T15:11:09Z</time>
      </trkpt>
      <trkpt lat="44.72685" lon="-0.3638">
        <ele>79</ele>
        <time>2013-03-03T15:11:23Z</time>
      </trkpt>
      <trkpt lat="44.72685" lon="-0.36379">
        <ele>79</ele>
        <time>2013-03-03T15:11:37Z</time>
      </trkpt>
      <trkpt lat="44.72685" lon="-0.36379">
        <ele>79</ele>
        <time>2013-03-03T15:11:45Z</time>
      </trkpt>
      <trkpt lat="44.72686" lon="-0.36378">
        <ele>79</ele>
        <time>2013-03-03T15:11:53Z</time>
      </trkpt>
      <trkpt lat="44.72687" lon="-0.36377">
        <ele>79</ele>
        <time>2013-03-03T15:11:56Z</time>
      </trkpt>
      <trkpt lat="44.72688" lon="-0.36375">
        <ele>79</ele>
        <time>2013-03-03T15:11:57Z</time>
      </trkpt>
      <trkpt lat="44.72688" lon="-0.36372">
        <ele>79</ele>
        <time>2013-03-03T15:11:58Z</time>
      </trkpt>
      <trkpt lat="44.72697" lon="-0.36357">
        <ele>80</ele>
        <time>2013-03-03T15:12:06Z</time>
      </trkpt>
      <trkpt lat="44.72699" lon="-0.36356">
        <ele>81</ele>
        <time>2013-03-03T15:12:07Z</time>
      </trkpt>
      <trkpt lat="44.727" lon="-0.36355">
        <ele>81</ele>
        <time>2013-03-03T15:12:08Z</time>
      </trkpt>
      <trkpt lat="44.72702" lon="-0.36354">
        <ele>81</ele>
        <time>2013-03-03T15:12:09Z</time>
      </trkpt>
      <trkpt lat="44.72703" lon="-0.36352">
        <ele>81</ele>
        <time>2013-03-03T15:12:10Z</time>
      </trkpt>
      <trkpt lat="44.72704" lon="-0.36349">
        <ele>81</ele>
        <time>2013-03-03T15:12:11Z</time>
      </trkpt>
      <trkpt lat="44.72706" lon="-0.36347">
        <ele>81</ele>
        <time>2013-03-03T15:12:12Z</time>
      </trkpt>
      <trkpt lat="44.72707" lon="-0.36345">
        <ele>81</ele>
        <time>2013-03-03T15:12:13Z</time>
      </trkpt>
      <trkpt lat="44.72709" lon="-0.36342">
        <ele>82</ele>
        <time>2013-03-03T15:12:14Z</time>
      </trkpt>
      <trkpt lat="44.7271" lon="-0.3634">
        <ele>82</ele>
        <time>2013-03-03T15:12:15Z</time>
      </trkpt>
      <trkpt lat="44.72712" lon="-0.36338">
        <ele>82</ele>
        <time>2013-03-03T15:12:16Z</time>
      </trkpt>
      <trkpt lat="44.72714" lon="-0.36336">
        <ele>82</ele>
        <time>2013-03-03T15:12:17Z</time>
      </trkpt>
      <trkpt lat="44.72716" lon="-0.36334">
        <ele>82</ele>
        <time>2013-03-03T15:12:18Z</time>
      </trkpt>
      <trkpt lat="44.72718" lon="-0.36332">
        <ele>83</ele>
        <time>2013-03-03T15:12:19Z</time>
      </trkpt>
      <trkpt lat="44.72735" lon="-0.36322">
        <ele>85</ele>
        <time>2013-03-03T15:12:27Z</time>
      </trkpt>
      <trkpt lat="44.72754" lon="-0.3632">
        <ele>86</ele>
        <time>2013-03-03T15:12:35Z</time>
      </trkpt>
      <trkpt lat="44.72772" lon="-0.3632">
        <ele>87</ele>
        <time>2013-03-03T15:12:43Z</time>
      </trkpt>
      <trkpt lat="44.72793" lon="-0.36315">
        <ele>88</ele>
        <time>2013-03-03T15:12:51Z</time>
      </trkpt>
      <trkpt lat="44.72823" lon="-0.36305">
        <ele>89</ele>
        <time>2013-03-03T15:13:02Z</time>
      </trkpt>
      <trkpt lat="44.72847" lon="-0.36295">
        <ele>90</ele>
        <time>2013-03-03T15:13:11Z</time>
      </trkpt>
      <trkpt lat="44.7287" lon="-0.36282">
        <ele>91</ele>
        <time>2013-03-03T15:13:20Z</time>
      </trkpt>
      <trkpt lat="44.72894" lon="-0.36266">
        <ele>92</ele>
        <time>2013-03-03T15:13:29Z</time>
      </trkpt>
      <trkpt lat="44.72914" lon="-0.36249">
        <ele>92</ele>
        <time>2013-03-03T15:13:37Z</time>
      </trkpt>
      <trkpt lat="44.72918" lon="-0.36244">
        <ele>92</ele>
        <time>2013-03-03T15:13:42Z</time>
      </trkpt>
      <trkpt lat="44.72918" lon="-0.36244">
        <ele>92</ele>
        <time>2013-03-03T15:13:48Z</time>
      </trkpt>
      <trkpt lat="44.72919" lon="-0.36244">
        <ele>92</ele>
        <time>2013-03-03T15:13:55Z</time>
      </trkpt>
      <trkpt lat="44.72919" lon="-0.36243">
        <ele>92</ele>
        <time>2013-03-03T15:14:03Z</time>
      </trkpt>
      <trkpt lat="44.72919" lon="-0.36243">
        <ele>92</ele>
        <time>2013-03-03T15:14:13Z</time>
      </trkpt>
      <trkpt lat="44.7292" lon="-0.36242">
        <ele>92</ele>
        <time>2013-03-03T15:14:24Z</time>
      </trkpt>
      <trkpt lat="44.7292" lon="-0.36242">
        <ele>92</ele>
        <time>2013-03-03T15:14:32Z</time>
      </trkpt>
      <trkpt lat="44.7292" lon="-0.36241">
        <ele>92</ele>
        <time>2013-03-03T15:14:45Z</time>
      </trkpt>
      <trkpt lat="44.72932" lon="-0.36232">
        <ele>92</ele>
        <time>2013-03-03T15:14:51Z</time>
      </trkpt>
      <trkpt lat="44.72952" lon="-0.36216">
        <ele>92</ele>
        <time>2013-03-03T15:14:59Z</time>
      </trkpt>
      <trkpt lat="44.72974" lon="-0.36199">
        <ele>92</ele>
        <time>2013-03-03T15:15:07Z</time>
      </trkpt>
      <trkpt lat="44.72996" lon="-0.36184">
        <ele>92</ele>
        <time>2013-03-03T15:15:15Z</time>
      </trkpt>
      <trkpt lat="44.73013" lon="-0.36172">
        <ele>91</ele>
        <time>2013-03-03T15:15:21Z</time>
      </trkpt>
      <trkpt lat="44.73033" lon="-0.36159">
        <ele>91</ele>
        <time>2013-03-03T15:15:28Z</time>
      </trkpt>
      <trkpt lat="44.73064" lon="-0.36138">
        <ele>91</ele>
        <time>2013-03-03T15:15:38Z</time>
      </trkpt>
      <trkpt lat="44.73156" lon="-0.36087">
        <ele>91</ele>
        <time>2013-03-03T15:15:39Z</time>
      </trkpt>
      <trkpt lat="44.73313" lon="-0.36028">
        <ele>87</ele>
        <time>2013-03-03T15:15:40Z</time>
      </trkpt>
      <trkpt lat="44.73352" lon="-0.36071">
        <ele>86</ele>
        <time>2013-03-03T15:15:49Z</time>
      </trkpt>
    </trkseg>
  </trk>
</gpx>